<?xml version="1.0" encoding="UTF-8" standalone="no" ?>
<gpx xmlns="http://www.topografix.com/GPX/1/1" xmlns:xsi="http://www.w3.org/2001/XMLSchema-instance" xsi:schemaLocation="http://www.topografix.com/GPX/1/1 http://www.topografix.com/GPX/1/1/gpx.xsd" version="1.1" creator="VisuGPX - https://www.visugpx.com">
  <metadata>
    <name>Trail Cabornis 2015</name>
    <desc><![CDATA[Trail des cabornis 2015]]></desc>
  </metadata>
  <trk>
    <name><![CDATA[Running 3/7/15 2:59 pm]]></name>
    <trkseg>
      <trkpt lat="45.87448" lon="4.76985">
        <ele>234.7</ele>
        <time>2015-03-07T14:01:59Z</time>
      </trkpt>
      <trkpt lat="45.8743" lon="4.77013">
        <ele>234.9</ele>
        <time>2015-03-07T14:02:39Z</time>
      </trkpt>
      <trkpt lat="45.87416" lon="4.77024">
        <ele>235</ele>
        <time>2015-03-07T14:02:43Z</time>
      </trkpt>
      <trkpt lat="45.87403" lon="4.77033">
        <ele>235.1</ele>
        <time>2015-03-07T14:02:46Z</time>
      </trkpt>
      <trkpt lat="45.8739" lon="4.77035">
        <ele>235.2</ele>
        <time>2015-03-07T14:02:48Z</time>
      </trkpt>
      <trkpt lat="45.87376" lon="4.77037">
        <ele>235.3</ele>
        <time>2015-03-07T14:02:50Z</time>
      </trkpt>
      <trkpt lat="45.87365" lon="4.77042">
        <ele>235.5</ele>
        <time>2015-03-07T14:02:52Z</time>
      </trkpt>
      <trkpt lat="45.87356" lon="4.77052">
        <ele>235.6</ele>
        <time>2015-03-07T14:02:54Z</time>
      </trkpt>
      <trkpt lat="45.87347" lon="4.77056">
        <ele>235.8</ele>
        <time>2015-03-07T14:02:56Z</time>
      </trkpt>
      <trkpt lat="45.87339" lon="4.77061">
        <ele>236</ele>
        <time>2015-03-07T14:03:00Z</time>
      </trkpt>
      <trkpt lat="45.87335" lon="4.77079">
        <ele>236.9</ele>
        <time>2015-03-07T14:03:03Z</time>
      </trkpt>
      <trkpt lat="45.87336" lon="4.77092">
        <ele>237.5</ele>
        <time>2015-03-07T14:03:05Z</time>
      </trkpt>
      <trkpt lat="45.87336" lon="4.77105">
        <ele>237.8</ele>
        <time>2015-03-07T14:03:07Z</time>
      </trkpt>
      <trkpt lat="45.87337" lon="4.77117">
        <ele>238.2</ele>
        <time>2015-03-07T14:03:13Z</time>
      </trkpt>
      <trkpt lat="45.87333" lon="4.7713">
        <ele>239.1</ele>
        <time>2015-03-07T14:03:18Z</time>
      </trkpt>
      <trkpt lat="45.87284" lon="4.7715">
        <ele>240</ele>
        <time>2015-03-07T14:03:33Z</time>
      </trkpt>
      <trkpt lat="45.87273" lon="4.77142">
        <ele>240.9</ele>
        <time>2015-03-07T14:03:35Z</time>
      </trkpt>
      <trkpt lat="45.87265" lon="4.77136">
        <ele>241.8</ele>
        <time>2015-03-07T14:03:38Z</time>
      </trkpt>
      <trkpt lat="45.87255" lon="4.7713">
        <ele>242.7</ele>
        <time>2015-03-07T14:03:41Z</time>
      </trkpt>
      <trkpt lat="45.8719" lon="4.77125">
        <ele>243.6</ele>
        <time>2015-03-07T14:04:03Z</time>
      </trkpt>
      <trkpt lat="45.87182" lon="4.77129">
        <ele>244.5</ele>
        <time>2015-03-07T14:04:06Z</time>
      </trkpt>
      <trkpt lat="45.87171" lon="4.77135">
        <ele>245.3</ele>
        <time>2015-03-07T14:04:09Z</time>
      </trkpt>
      <trkpt lat="45.87161" lon="4.77137">
        <ele>246</ele>
        <time>2015-03-07T14:04:13Z</time>
      </trkpt>
      <trkpt lat="45.87149" lon="4.77136">
        <ele>248</ele>
        <time>2015-03-07T14:04:19Z</time>
      </trkpt>
      <trkpt lat="45.87139" lon="4.77135">
        <ele>250.6</ele>
        <time>2015-03-07T14:04:22Z</time>
      </trkpt>
      <trkpt lat="45.8713" lon="4.77135">
        <ele>253.3</ele>
        <time>2015-03-07T14:04:25Z</time>
      </trkpt>
      <trkpt lat="45.87121" lon="4.77135">
        <ele>255.9</ele>
        <time>2015-03-07T14:04:29Z</time>
      </trkpt>
      <trkpt lat="45.87111" lon="4.77135">
        <ele>258.5</ele>
        <time>2015-03-07T14:04:32Z</time>
      </trkpt>
      <trkpt lat="45.87102" lon="4.77138">
        <ele>261.2</ele>
        <time>2015-03-07T14:04:35Z</time>
      </trkpt>
      <trkpt lat="45.8702" lon="4.7715">
        <ele>263.8</ele>
        <time>2015-03-07T14:05:05Z</time>
      </trkpt>
      <trkpt lat="45.86938" lon="4.77158">
        <ele>266.5</ele>
        <time>2015-03-07T14:05:35Z</time>
      </trkpt>
      <trkpt lat="45.86928" lon="4.77154">
        <ele>269.7</ele>
        <time>2015-03-07T14:05:39Z</time>
      </trkpt>
      <trkpt lat="45.86911" lon="4.77153">
        <ele>272.5</ele>
        <time>2015-03-07T14:05:48Z</time>
      </trkpt>
      <trkpt lat="45.869" lon="4.77154">
        <ele>275.2</ele>
        <time>2015-03-07T14:05:53Z</time>
      </trkpt>
      <trkpt lat="45.86889" lon="4.77157">
        <ele>277</ele>
        <time>2015-03-07T14:05:55Z</time>
      </trkpt>
      <trkpt lat="45.86882" lon="4.77165">
        <ele>278.2</ele>
        <time>2015-03-07T14:05:59Z</time>
      </trkpt>
      <trkpt lat="45.86873" lon="4.77173">
        <ele>278.8</ele>
        <time>2015-03-07T14:06:02Z</time>
      </trkpt>
      <trkpt lat="45.86864" lon="4.77175">
        <ele>279.5</ele>
        <time>2015-03-07T14:06:07Z</time>
      </trkpt>
      <trkpt lat="45.8686" lon="4.77185">
        <ele>280.1</ele>
        <time>2015-03-07T14:06:17Z</time>
      </trkpt>
      <trkpt lat="45.86851" lon="4.77191">
        <ele>280.7</ele>
        <time>2015-03-07T14:06:24Z</time>
      </trkpt>
      <trkpt lat="45.86843" lon="4.77193">
        <ele>281.4</ele>
        <time>2015-03-07T14:06:30Z</time>
      </trkpt>
      <trkpt lat="45.86831" lon="4.77198">
        <ele>282.7</ele>
        <time>2015-03-07T14:06:37Z</time>
      </trkpt>
      <trkpt lat="45.86822" lon="4.77201">
        <ele>283.5</ele>
        <time>2015-03-07T14:06:43Z</time>
      </trkpt>
      <trkpt lat="45.86813" lon="4.77204">
        <ele>284.2</ele>
        <time>2015-03-07T14:06:49Z</time>
      </trkpt>
      <trkpt lat="45.86804" lon="4.77205">
        <ele>284.9</ele>
        <time>2015-03-07T14:06:53Z</time>
      </trkpt>
      <trkpt lat="45.86796" lon="4.77207">
        <ele>285.6</ele>
        <time>2015-03-07T14:06:56Z</time>
      </trkpt>
      <trkpt lat="45.86786" lon="4.77208">
        <ele>286.4</ele>
        <time>2015-03-07T14:07:00Z</time>
      </trkpt>
      <trkpt lat="45.86777" lon="4.77211">
        <ele>287.1</ele>
        <time>2015-03-07T14:07:05Z</time>
      </trkpt>
      <trkpt lat="45.86769" lon="4.77214">
        <ele>287.8</ele>
        <time>2015-03-07T14:07:09Z</time>
      </trkpt>
      <trkpt lat="45.86761" lon="4.77214">
        <ele>288.5</ele>
        <time>2015-03-07T14:07:13Z</time>
      </trkpt>
      <trkpt lat="45.86753" lon="4.77214">
        <ele>289</ele>
        <time>2015-03-07T14:07:18Z</time>
      </trkpt>
      <trkpt lat="45.86743" lon="4.77213">
        <ele>291</ele>
        <time>2015-03-07T14:07:22Z</time>
      </trkpt>
      <trkpt lat="45.86733" lon="4.77213">
        <ele>292.3</ele>
        <time>2015-03-07T14:07:26Z</time>
      </trkpt>
      <trkpt lat="45.86724" lon="4.77213">
        <ele>293.5</ele>
        <time>2015-03-07T14:07:31Z</time>
      </trkpt>
      <trkpt lat="45.86715" lon="4.7721">
        <ele>294.8</ele>
        <time>2015-03-07T14:07:35Z</time>
      </trkpt>
      <trkpt lat="45.86705" lon="4.77212">
        <ele>296.1</ele>
        <time>2015-03-07T14:07:39Z</time>
      </trkpt>
      <trkpt lat="45.86703" lon="4.77224">
        <ele>297.4</ele>
        <time>2015-03-07T14:07:44Z</time>
      </trkpt>
      <trkpt lat="45.86705" lon="4.77238">
        <ele>298.6</ele>
        <time>2015-03-07T14:07:48Z</time>
      </trkpt>
      <trkpt lat="45.86703" lon="4.77251">
        <ele>300.7</ele>
        <time>2015-03-07T14:07:52Z</time>
      </trkpt>
      <trkpt lat="45.86703" lon="4.77264">
        <ele>302.8</ele>
        <time>2015-03-07T14:07:56Z</time>
      </trkpt>
      <trkpt lat="45.86703" lon="4.77275">
        <ele>304.9</ele>
        <time>2015-03-07T14:08:00Z</time>
      </trkpt>
      <trkpt lat="45.86706" lon="4.77288">
        <ele>307.3</ele>
        <time>2015-03-07T14:08:05Z</time>
      </trkpt>
      <trkpt lat="45.86705" lon="4.773">
        <ele>308.1</ele>
        <time>2015-03-07T14:08:09Z</time>
      </trkpt>
      <trkpt lat="45.86704" lon="4.77312">
        <ele>308.9</ele>
        <time>2015-03-07T14:08:13Z</time>
      </trkpt>
      <trkpt lat="45.86704" lon="4.77324">
        <ele>309.7</ele>
        <time>2015-03-07T14:08:16Z</time>
      </trkpt>
      <trkpt lat="45.86699" lon="4.77336">
        <ele>311</ele>
        <time>2015-03-07T14:08:22Z</time>
      </trkpt>
      <trkpt lat="45.86695" lon="4.77348">
        <ele>312.3</ele>
        <time>2015-03-07T14:08:26Z</time>
      </trkpt>
      <trkpt lat="45.86691" lon="4.77358">
        <ele>313.5</ele>
        <time>2015-03-07T14:08:31Z</time>
      </trkpt>
      <trkpt lat="45.86688" lon="4.77369">
        <ele>314.8</ele>
        <time>2015-03-07T14:08:36Z</time>
      </trkpt>
      <trkpt lat="45.86685" lon="4.77382">
        <ele>315.3</ele>
        <time>2015-03-07T14:08:42Z</time>
      </trkpt>
      <trkpt lat="45.86679" lon="4.77393">
        <ele>315.7</ele>
        <time>2015-03-07T14:08:48Z</time>
      </trkpt>
      <trkpt lat="45.86672" lon="4.77403">
        <ele>316.2</ele>
        <time>2015-03-07T14:08:52Z</time>
      </trkpt>
      <trkpt lat="45.86664" lon="4.77409">
        <ele>316.6</ele>
        <time>2015-03-07T14:08:57Z</time>
      </trkpt>
      <trkpt lat="45.86656" lon="4.77414">
        <ele>318.2</ele>
        <time>2015-03-07T14:09:03Z</time>
      </trkpt>
      <trkpt lat="45.86649" lon="4.77424">
        <ele>319.7</ele>
        <time>2015-03-07T14:09:06Z</time>
      </trkpt>
      <trkpt lat="45.86643" lon="4.77432">
        <ele>321.3</ele>
        <time>2015-03-07T14:09:09Z</time>
      </trkpt>
      <trkpt lat="45.86637" lon="4.77441">
        <ele>322.4</ele>
        <time>2015-03-07T14:09:15Z</time>
      </trkpt>
      <trkpt lat="45.8663" lon="4.77447">
        <ele>323.5</ele>
        <time>2015-03-07T14:09:20Z</time>
      </trkpt>
      <trkpt lat="45.8662" lon="4.77454">
        <ele>324.5</ele>
        <time>2015-03-07T14:09:24Z</time>
      </trkpt>
      <trkpt lat="45.86614" lon="4.77463">
        <ele>325.6</ele>
        <time>2015-03-07T14:09:32Z</time>
      </trkpt>
      <trkpt lat="45.86607" lon="4.77471">
        <ele>326.7</ele>
        <time>2015-03-07T14:09:36Z</time>
      </trkpt>
      <trkpt lat="45.866" lon="4.77476">
        <ele>327.8</ele>
        <time>2015-03-07T14:09:39Z</time>
      </trkpt>
      <trkpt lat="45.86591" lon="4.7748">
        <ele>330.4</ele>
        <time>2015-03-07T14:09:42Z</time>
      </trkpt>
      <trkpt lat="45.86582" lon="4.77485">
        <ele>332.9</ele>
        <time>2015-03-07T14:09:47Z</time>
      </trkpt>
      <trkpt lat="45.86574" lon="4.7749">
        <ele>334.4</ele>
        <time>2015-03-07T14:09:53Z</time>
      </trkpt>
      <trkpt lat="45.86566" lon="4.77492">
        <ele>335.8</ele>
        <time>2015-03-07T14:09:58Z</time>
      </trkpt>
      <trkpt lat="45.86555" lon="4.77496">
        <ele>337.3</ele>
        <time>2015-03-07T14:10:10Z</time>
      </trkpt>
      <trkpt lat="45.86544" lon="4.775">
        <ele>338.7</ele>
        <time>2015-03-07T14:10:13Z</time>
      </trkpt>
      <trkpt lat="45.86534" lon="4.77505">
        <ele>340.2</ele>
        <time>2015-03-07T14:10:16Z</time>
      </trkpt>
      <trkpt lat="45.86526" lon="4.77507">
        <ele>341.6</ele>
        <time>2015-03-07T14:10:21Z</time>
      </trkpt>
      <trkpt lat="45.86517" lon="4.77509">
        <ele>343.1</ele>
        <time>2015-03-07T14:10:25Z</time>
      </trkpt>
      <trkpt lat="45.86509" lon="4.7751">
        <ele>345.5</ele>
        <time>2015-03-07T14:10:31Z</time>
      </trkpt>
      <trkpt lat="45.865" lon="4.7751">
        <ele>348</ele>
        <time>2015-03-07T14:10:36Z</time>
      </trkpt>
      <trkpt lat="45.86489" lon="4.77507">
        <ele>349</ele>
        <time>2015-03-07T14:10:41Z</time>
      </trkpt>
      <trkpt lat="45.86479" lon="4.77511">
        <ele>350</ele>
        <time>2015-03-07T14:10:46Z</time>
      </trkpt>
      <trkpt lat="45.86471" lon="4.77515">
        <ele>351</ele>
        <time>2015-03-07T14:10:51Z</time>
      </trkpt>
      <trkpt lat="45.86461" lon="4.77515">
        <ele>352</ele>
        <time>2015-03-07T14:10:59Z</time>
      </trkpt>
      <trkpt lat="45.86452" lon="4.77517">
        <ele>353</ele>
        <time>2015-03-07T14:11:03Z</time>
      </trkpt>
      <trkpt lat="45.86444" lon="4.77519">
        <ele>354</ele>
        <time>2015-03-07T14:11:08Z</time>
      </trkpt>
      <trkpt lat="45.86437" lon="4.77528">
        <ele>355</ele>
        <time>2015-03-07T14:11:15Z</time>
      </trkpt>
      <trkpt lat="45.8643" lon="4.77534">
        <ele>356</ele>
        <time>2015-03-07T14:11:23Z</time>
      </trkpt>
      <trkpt lat="45.86421" lon="4.77535">
        <ele>358.5</ele>
        <time>2015-03-07T14:11:33Z</time>
      </trkpt>
      <trkpt lat="45.8641" lon="4.77535">
        <ele>359.9</ele>
        <time>2015-03-07T14:11:39Z</time>
      </trkpt>
      <trkpt lat="45.86402" lon="4.77533">
        <ele>361.4</ele>
        <time>2015-03-07T14:11:44Z</time>
      </trkpt>
      <trkpt lat="45.86393" lon="4.77531">
        <ele>362.8</ele>
        <time>2015-03-07T14:11:53Z</time>
      </trkpt>
      <trkpt lat="45.86385" lon="4.77527">
        <ele>364.3</ele>
        <time>2015-03-07T14:12:00Z</time>
      </trkpt>
      <trkpt lat="45.86376" lon="4.77526">
        <ele>365.7</ele>
        <time>2015-03-07T14:12:07Z</time>
      </trkpt>
      <trkpt lat="45.86368" lon="4.77523">
        <ele>367.2</ele>
        <time>2015-03-07T14:12:12Z</time>
      </trkpt>
      <trkpt lat="45.8636" lon="4.77519">
        <ele>368.6</ele>
        <time>2015-03-07T14:12:17Z</time>
      </trkpt>
      <trkpt lat="45.86349" lon="4.77518">
        <ele>370.1</ele>
        <time>2015-03-07T14:12:22Z</time>
      </trkpt>
      <trkpt lat="45.86341" lon="4.77514">
        <ele>371.5</ele>
        <time>2015-03-07T14:12:29Z</time>
      </trkpt>
      <trkpt lat="45.86333" lon="4.7751">
        <ele>373.9</ele>
        <time>2015-03-07T14:12:37Z</time>
      </trkpt>
      <trkpt lat="45.86324" lon="4.77509">
        <ele>374.8</ele>
        <time>2015-03-07T14:12:44Z</time>
      </trkpt>
      <trkpt lat="45.86313" lon="4.77508">
        <ele>375.7</ele>
        <time>2015-03-07T14:12:51Z</time>
      </trkpt>
      <trkpt lat="45.86304" lon="4.77506">
        <ele>376.6</ele>
        <time>2015-03-07T14:12:54Z</time>
      </trkpt>
      <trkpt lat="45.86293" lon="4.77507">
        <ele>377.5</ele>
        <time>2015-03-07T14:12:58Z</time>
      </trkpt>
      <trkpt lat="45.86283" lon="4.77508">
        <ele>378.5</ele>
        <time>2015-03-07T14:13:01Z</time>
      </trkpt>
      <trkpt lat="45.86273" lon="4.77511">
        <ele>379.4</ele>
        <time>2015-03-07T14:13:08Z</time>
      </trkpt>
      <trkpt lat="45.86262" lon="4.77512">
        <ele>380.3</ele>
        <time>2015-03-07T14:13:14Z</time>
      </trkpt>
      <trkpt lat="45.86253" lon="4.77511">
        <ele>382.5</ele>
        <time>2015-03-07T14:13:18Z</time>
      </trkpt>
      <trkpt lat="45.86244" lon="4.77509">
        <ele>384.6</ele>
        <time>2015-03-07T14:13:28Z</time>
      </trkpt>
      <trkpt lat="45.86234" lon="4.77508">
        <ele>386.8</ele>
        <time>2015-03-07T14:13:37Z</time>
      </trkpt>
      <trkpt lat="45.86224" lon="4.77509">
        <ele>388.1</ele>
        <time>2015-03-07T14:13:41Z</time>
      </trkpt>
      <trkpt lat="45.86215" lon="4.77511">
        <ele>389.4</ele>
        <time>2015-03-07T14:13:47Z</time>
      </trkpt>
      <trkpt lat="45.86207" lon="4.77513">
        <ele>390.6</ele>
        <time>2015-03-07T14:13:51Z</time>
      </trkpt>
      <trkpt lat="45.86198" lon="4.77513">
        <ele>391.9</ele>
        <time>2015-03-07T14:13:56Z</time>
      </trkpt>
      <trkpt lat="45.8619" lon="4.77517">
        <ele>393.2</ele>
        <time>2015-03-07T14:14:01Z</time>
      </trkpt>
      <trkpt lat="45.86181" lon="4.77518">
        <ele>392.4</ele>
        <time>2015-03-07T14:14:05Z</time>
      </trkpt>
      <trkpt lat="45.86172" lon="4.77524">
        <ele>393.5</ele>
        <time>2015-03-07T14:14:10Z</time>
      </trkpt>
      <trkpt lat="45.86163" lon="4.7753">
        <ele>394.7</ele>
        <time>2015-03-07T14:14:16Z</time>
      </trkpt>
      <trkpt lat="45.86155" lon="4.77538">
        <ele>394.6</ele>
        <time>2015-03-07T14:14:19Z</time>
      </trkpt>
      <trkpt lat="45.86147" lon="4.77545">
        <ele>394.5</ele>
        <time>2015-03-07T14:14:25Z</time>
      </trkpt>
      <trkpt lat="45.86137" lon="4.77551">
        <ele>394.5</ele>
        <time>2015-03-07T14:14:29Z</time>
      </trkpt>
      <trkpt lat="45.86127" lon="4.77556">
        <ele>394.4</ele>
        <time>2015-03-07T14:14:33Z</time>
      </trkpt>
      <trkpt lat="45.86116" lon="4.77564">
        <ele>394.3</ele>
        <time>2015-03-07T14:14:39Z</time>
      </trkpt>
      <trkpt lat="45.86107" lon="4.77569">
        <ele>394.2</ele>
        <time>2015-03-07T14:14:44Z</time>
      </trkpt>
      <trkpt lat="45.86098" lon="4.77575">
        <ele>394.1</ele>
        <time>2015-03-07T14:14:48Z</time>
      </trkpt>
      <trkpt lat="45.86091" lon="4.77581">
        <ele>395.6</ele>
        <time>2015-03-07T14:14:52Z</time>
      </trkpt>
      <trkpt lat="45.86079" lon="4.77584">
        <ele>399.3</ele>
        <time>2015-03-07T14:14:57Z</time>
      </trkpt>
      <trkpt lat="45.86071" lon="4.77587">
        <ele>400.9</ele>
        <time>2015-03-07T14:15:01Z</time>
      </trkpt>
      <trkpt lat="45.86061" lon="4.77593">
        <ele>402.5</ele>
        <time>2015-03-07T14:15:06Z</time>
      </trkpt>
      <trkpt lat="45.86051" lon="4.77598">
        <ele>404.2</ele>
        <time>2015-03-07T14:15:10Z</time>
      </trkpt>
      <trkpt lat="45.86043" lon="4.77603">
        <ele>405.8</ele>
        <time>2015-03-07T14:15:14Z</time>
      </trkpt>
      <trkpt lat="45.86032" lon="4.77605">
        <ele>407.3</ele>
        <time>2015-03-07T14:15:20Z</time>
      </trkpt>
      <trkpt lat="45.86022" lon="4.77609">
        <ele>408.7</ele>
        <time>2015-03-07T14:15:24Z</time>
      </trkpt>
      <trkpt lat="45.86011" lon="4.77612">
        <ele>410.2</ele>
        <time>2015-03-07T14:15:28Z</time>
      </trkpt>
      <trkpt lat="45.86001" lon="4.77617">
        <ele>411.6</ele>
        <time>2015-03-07T14:15:33Z</time>
      </trkpt>
      <trkpt lat="45.85977" lon="4.77626">
        <ele>413.1</ele>
        <time>2015-03-07T14:15:45Z</time>
      </trkpt>
      <trkpt lat="45.85933" lon="4.77657">
        <ele>412.2</ele>
        <time>2015-03-07T14:16:08Z</time>
      </trkpt>
      <trkpt lat="45.85921" lon="4.77663">
        <ele>411.3</ele>
        <time>2015-03-07T14:16:16Z</time>
      </trkpt>
      <trkpt lat="45.85914" lon="4.77671">
        <ele>410.4</ele>
        <time>2015-03-07T14:16:24Z</time>
      </trkpt>
      <trkpt lat="45.8591" lon="4.77682">
        <ele>411.4</ele>
        <time>2015-03-07T14:16:28Z</time>
      </trkpt>
      <trkpt lat="45.85905" lon="4.77707">
        <ele>412.4</ele>
        <time>2015-03-07T14:16:37Z</time>
      </trkpt>
      <trkpt lat="45.85901" lon="4.77719">
        <ele>413.4</ele>
        <time>2015-03-07T14:16:41Z</time>
      </trkpt>
      <trkpt lat="45.85892" lon="4.77733">
        <ele>414.5</ele>
        <time>2015-03-07T14:16:51Z</time>
      </trkpt>
      <trkpt lat="45.85882" lon="4.77737">
        <ele>415.7</ele>
        <time>2015-03-07T14:16:55Z</time>
      </trkpt>
      <trkpt lat="45.8587" lon="4.77737">
        <ele>416.9</ele>
        <time>2015-03-07T14:16:58Z</time>
      </trkpt>
      <trkpt lat="45.85859" lon="4.77739">
        <ele>418.1</ele>
        <time>2015-03-07T14:17:01Z</time>
      </trkpt>
      <trkpt lat="45.8585" lon="4.77743">
        <ele>419.3</ele>
        <time>2015-03-07T14:17:06Z</time>
      </trkpt>
      <trkpt lat="45.85838" lon="4.77746">
        <ele>423.3</ele>
        <time>2015-03-07T14:17:12Z</time>
      </trkpt>
      <trkpt lat="45.85827" lon="4.77748">
        <ele>427.3</ele>
        <time>2015-03-07T14:17:18Z</time>
      </trkpt>
      <trkpt lat="45.85819" lon="4.77751">
        <ele>430.2</ele>
        <time>2015-03-07T14:17:29Z</time>
      </trkpt>
      <trkpt lat="45.85803" lon="4.77766">
        <ele>431.2</ele>
        <time>2015-03-07T14:17:39Z</time>
      </trkpt>
      <trkpt lat="45.85796" lon="4.77773">
        <ele>432.2</ele>
        <time>2015-03-07T14:17:46Z</time>
      </trkpt>
      <trkpt lat="45.85785" lon="4.77784">
        <ele>433.2</ele>
        <time>2015-03-07T14:17:50Z</time>
      </trkpt>
      <trkpt lat="45.85776" lon="4.77791">
        <ele>434.2</ele>
        <time>2015-03-07T14:17:52Z</time>
      </trkpt>
      <trkpt lat="45.85767" lon="4.77801">
        <ele>435.2</ele>
        <time>2015-03-07T14:17:58Z</time>
      </trkpt>
      <trkpt lat="45.85756" lon="4.77809">
        <ele>438.9</ele>
        <time>2015-03-07T14:18:04Z</time>
      </trkpt>
      <trkpt lat="45.85745" lon="4.77809">
        <ele>442.6</ele>
        <time>2015-03-07T14:18:34Z</time>
      </trkpt>
      <trkpt lat="45.85738" lon="4.77819">
        <ele>446.4</ele>
        <time>2015-03-07T14:18:40Z</time>
      </trkpt>
      <trkpt lat="45.85728" lon="4.77828">
        <ele>448</ele>
        <time>2015-03-07T14:18:53Z</time>
      </trkpt>
      <trkpt lat="45.85717" lon="4.77838">
        <ele>448.5</ele>
        <time>2015-03-07T14:19:00Z</time>
      </trkpt>
      <trkpt lat="45.85708" lon="4.77848">
        <ele>450</ele>
        <time>2015-03-07T14:19:04Z</time>
      </trkpt>
      <trkpt lat="45.857" lon="4.77855">
        <ele>451.5</ele>
        <time>2015-03-07T14:19:08Z</time>
      </trkpt>
      <trkpt lat="45.85693" lon="4.7786">
        <ele>453.1</ele>
        <time>2015-03-07T14:19:13Z</time>
      </trkpt>
      <trkpt lat="45.85686" lon="4.7787">
        <ele>454.6</ele>
        <time>2015-03-07T14:19:17Z</time>
      </trkpt>
      <trkpt lat="45.85681" lon="4.77881">
        <ele>456.2</ele>
        <time>2015-03-07T14:19:24Z</time>
      </trkpt>
      <trkpt lat="45.85673" lon="4.77901">
        <ele>459.7</ele>
        <time>2015-03-07T14:19:41Z</time>
      </trkpt>
      <trkpt lat="45.85666" lon="4.77909">
        <ele>460.5</ele>
        <time>2015-03-07T14:19:45Z</time>
      </trkpt>
      <trkpt lat="45.85658" lon="4.77914">
        <ele>461.2</ele>
        <time>2015-03-07T14:19:49Z</time>
      </trkpt>
      <trkpt lat="45.85646" lon="4.77918">
        <ele>461.9</ele>
        <time>2015-03-07T14:19:58Z</time>
      </trkpt>
      <trkpt lat="45.8564" lon="4.77927">
        <ele>464.1</ele>
        <time>2015-03-07T14:20:05Z</time>
      </trkpt>
      <trkpt lat="45.85603" lon="4.77965">
        <ele>467.5</ele>
        <time>2015-03-07T14:20:27Z</time>
      </trkpt>
      <trkpt lat="45.8566" lon="4.78104">
        <ele>470.8</ele>
        <time>2015-03-07T14:21:24Z</time>
      </trkpt>
      <trkpt lat="45.85664" lon="4.78117">
        <ele>474.2</ele>
        <time>2015-03-07T14:21:30Z</time>
      </trkpt>
      <trkpt lat="45.85669" lon="4.78129">
        <ele>477.5</ele>
        <time>2015-03-07T14:21:34Z</time>
      </trkpt>
      <trkpt lat="45.85674" lon="4.78146">
        <ele>480.9</ele>
        <time>2015-03-07T14:21:38Z</time>
      </trkpt>
      <trkpt lat="45.85678" lon="4.78161">
        <ele>484.3</ele>
        <time>2015-03-07T14:21:43Z</time>
      </trkpt>
      <trkpt lat="45.85684" lon="4.78173">
        <ele>486</ele>
        <time>2015-03-07T14:21:47Z</time>
      </trkpt>
      <trkpt lat="45.85691" lon="4.7818">
        <ele>487.8</ele>
        <time>2015-03-07T14:21:49Z</time>
      </trkpt>
      <trkpt lat="45.85697" lon="4.78188">
        <ele>489.6</ele>
        <time>2015-03-07T14:21:56Z</time>
      </trkpt>
      <trkpt lat="45.85698" lon="4.78201">
        <ele>491.5</ele>
        <time>2015-03-07T14:22:03Z</time>
      </trkpt>
      <trkpt lat="45.85699" lon="4.78216">
        <ele>491.8</ele>
        <time>2015-03-07T14:22:08Z</time>
      </trkpt>
      <trkpt lat="45.857" lon="4.78229">
        <ele>492.3</ele>
        <time>2015-03-07T14:22:12Z</time>
      </trkpt>
      <trkpt lat="45.85703" lon="4.78256">
        <ele>492.7</ele>
        <time>2015-03-07T14:22:22Z</time>
      </trkpt>
      <trkpt lat="45.85702" lon="4.78268">
        <ele>493.2</ele>
        <time>2015-03-07T14:22:27Z</time>
      </trkpt>
      <trkpt lat="45.85699" lon="4.7828">
        <ele>493.6</ele>
        <time>2015-03-07T14:22:36Z</time>
      </trkpt>
      <trkpt lat="45.85698" lon="4.78297">
        <ele>494.1</ele>
        <time>2015-03-07T14:22:43Z</time>
      </trkpt>
      <trkpt lat="45.85695" lon="4.78308">
        <ele>494.5</ele>
        <time>2015-03-07T14:22:48Z</time>
      </trkpt>
      <trkpt lat="45.8569" lon="4.78325">
        <ele>494.6</ele>
        <time>2015-03-07T14:22:54Z</time>
      </trkpt>
      <trkpt lat="45.85686" lon="4.78336">
        <ele>495.4</ele>
        <time>2015-03-07T14:22:58Z</time>
      </trkpt>
      <trkpt lat="45.85682" lon="4.78348">
        <ele>496.1</ele>
        <time>2015-03-07T14:23:03Z</time>
      </trkpt>
      <trkpt lat="45.85679" lon="4.7836">
        <ele>496.8</ele>
        <time>2015-03-07T14:23:07Z</time>
      </trkpt>
      <trkpt lat="45.85676" lon="4.78372">
        <ele>497.5</ele>
        <time>2015-03-07T14:23:11Z</time>
      </trkpt>
      <trkpt lat="45.85675" lon="4.78383">
        <ele>498.2</ele>
        <time>2015-03-07T14:23:16Z</time>
      </trkpt>
      <trkpt lat="45.85674" lon="4.78395">
        <ele>500</ele>
        <time>2015-03-07T14:23:20Z</time>
      </trkpt>
      <trkpt lat="45.8568" lon="4.78419">
        <ele>501.8</ele>
        <time>2015-03-07T14:23:31Z</time>
      </trkpt>
      <trkpt lat="45.85683" lon="4.78431">
        <ele>503.6</ele>
        <time>2015-03-07T14:23:35Z</time>
      </trkpt>
      <trkpt lat="45.85685" lon="4.78444">
        <ele>504.2</ele>
        <time>2015-03-07T14:23:40Z</time>
      </trkpt>
      <trkpt lat="45.85688" lon="4.78457">
        <ele>504.7</ele>
        <time>2015-03-07T14:23:44Z</time>
      </trkpt>
      <trkpt lat="45.85693" lon="4.78473">
        <ele>505.3</ele>
        <time>2015-03-07T14:23:47Z</time>
      </trkpt>
      <trkpt lat="45.85699" lon="4.7849">
        <ele>505.2</ele>
        <time>2015-03-07T14:23:53Z</time>
      </trkpt>
      <trkpt lat="45.85706" lon="4.78499">
        <ele>506.7</ele>
        <time>2015-03-07T14:23:56Z</time>
      </trkpt>
      <trkpt lat="45.85712" lon="4.78507">
        <ele>508.3</ele>
        <time>2015-03-07T14:23:59Z</time>
      </trkpt>
      <trkpt lat="45.8572" lon="4.78516">
        <ele>509.8</ele>
        <time>2015-03-07T14:24:02Z</time>
      </trkpt>
      <trkpt lat="45.85725" lon="4.78527">
        <ele>511.4</ele>
        <time>2015-03-07T14:24:10Z</time>
      </trkpt>
      <trkpt lat="45.85738" lon="4.78542">
        <ele>511.7</ele>
        <time>2015-03-07T14:24:16Z</time>
      </trkpt>
      <trkpt lat="45.85746" lon="4.78553">
        <ele>512.1</ele>
        <time>2015-03-07T14:24:21Z</time>
      </trkpt>
      <trkpt lat="45.8576" lon="4.78565">
        <ele>510.9</ele>
        <time>2015-03-07T14:24:29Z</time>
      </trkpt>
      <trkpt lat="45.85767" lon="4.7857">
        <ele>511</ele>
        <time>2015-03-07T14:24:35Z</time>
      </trkpt>
      <trkpt lat="45.85775" lon="4.78582">
        <ele>512.1</ele>
        <time>2015-03-07T14:24:39Z</time>
      </trkpt>
      <trkpt lat="45.85783" lon="4.78593">
        <ele>513.2</ele>
        <time>2015-03-07T14:24:44Z</time>
      </trkpt>
      <trkpt lat="45.85789" lon="4.78606">
        <ele>514.3</ele>
        <time>2015-03-07T14:24:50Z</time>
      </trkpt>
      <trkpt lat="45.85798" lon="4.78612">
        <ele>513.7</ele>
        <time>2015-03-07T14:24:54Z</time>
      </trkpt>
      <trkpt lat="45.85804" lon="4.78621">
        <ele>513.2</ele>
        <time>2015-03-07T14:24:58Z</time>
      </trkpt>
      <trkpt lat="45.85808" lon="4.78634">
        <ele>512.6</ele>
        <time>2015-03-07T14:25:03Z</time>
      </trkpt>
      <trkpt lat="45.85811" lon="4.78645">
        <ele>513.1</ele>
        <time>2015-03-07T14:25:10Z</time>
      </trkpt>
      <trkpt lat="45.85812" lon="4.78663">
        <ele>513.5</ele>
        <time>2015-03-07T14:25:19Z</time>
      </trkpt>
      <trkpt lat="45.85814" lon="4.78677">
        <ele>514</ele>
        <time>2015-03-07T14:25:26Z</time>
      </trkpt>
      <trkpt lat="45.85814" lon="4.78689">
        <ele>516</ele>
        <time>2015-03-07T14:25:31Z</time>
      </trkpt>
      <trkpt lat="45.85813" lon="4.78703">
        <ele>518</ele>
        <time>2015-03-07T14:25:38Z</time>
      </trkpt>
      <trkpt lat="45.85814" lon="4.78715">
        <ele>519</ele>
        <time>2015-03-07T14:25:44Z</time>
      </trkpt>
      <trkpt lat="45.85813" lon="4.78728">
        <ele>520</ele>
        <time>2015-03-07T14:25:52Z</time>
      </trkpt>
      <trkpt lat="45.85814" lon="4.78741">
        <ele>521.9</ele>
        <time>2015-03-07T14:25:58Z</time>
      </trkpt>
      <trkpt lat="45.85822" lon="4.78751">
        <ele>523.8</ele>
        <time>2015-03-07T14:26:05Z</time>
      </trkpt>
      <trkpt lat="45.85825" lon="4.78763">
        <ele>525.7</ele>
        <time>2015-03-07T14:26:10Z</time>
      </trkpt>
      <trkpt lat="45.85826" lon="4.78774">
        <ele>527.6</ele>
        <time>2015-03-07T14:26:17Z</time>
      </trkpt>
      <trkpt lat="45.85828" lon="4.78786">
        <ele>528.5</ele>
        <time>2015-03-07T14:26:21Z</time>
      </trkpt>
      <trkpt lat="45.85828" lon="4.78798">
        <ele>529.5</ele>
        <time>2015-03-07T14:26:28Z</time>
      </trkpt>
      <trkpt lat="45.85828" lon="4.7881">
        <ele>530.4</ele>
        <time>2015-03-07T14:26:33Z</time>
      </trkpt>
      <trkpt lat="45.85831" lon="4.78822">
        <ele>531.1</ele>
        <time>2015-03-07T14:26:37Z</time>
      </trkpt>
      <trkpt lat="45.85837" lon="4.78833">
        <ele>531.8</ele>
        <time>2015-03-07T14:26:42Z</time>
      </trkpt>
      <trkpt lat="45.85842" lon="4.78845">
        <ele>532.5</ele>
        <time>2015-03-07T14:26:46Z</time>
      </trkpt>
      <trkpt lat="45.85845" lon="4.78856">
        <ele>533.3</ele>
        <time>2015-03-07T14:26:50Z</time>
      </trkpt>
      <trkpt lat="45.8585" lon="4.7887">
        <ele>533.1</ele>
        <time>2015-03-07T14:26:56Z</time>
      </trkpt>
      <trkpt lat="45.85854" lon="4.78884">
        <ele>532.9</ele>
        <time>2015-03-07T14:27:01Z</time>
      </trkpt>
      <trkpt lat="45.85854" lon="4.78896">
        <ele>534</ele>
        <time>2015-03-07T14:27:05Z</time>
      </trkpt>
      <trkpt lat="45.85861" lon="4.78907">
        <ele>535.1</ele>
        <time>2015-03-07T14:27:10Z</time>
      </trkpt>
      <trkpt lat="45.85867" lon="4.78916">
        <ele>536.2</ele>
        <time>2015-03-07T14:27:14Z</time>
      </trkpt>
      <trkpt lat="45.85872" lon="4.78925">
        <ele>536.9</ele>
        <time>2015-03-07T14:27:18Z</time>
      </trkpt>
      <trkpt lat="45.85879" lon="4.78937">
        <ele>537.6</ele>
        <time>2015-03-07T14:27:24Z</time>
      </trkpt>
      <trkpt lat="45.85886" lon="4.78943">
        <ele>538.5</ele>
        <time>2015-03-07T14:27:28Z</time>
      </trkpt>
      <trkpt lat="45.85892" lon="4.7895">
        <ele>539.5</ele>
        <time>2015-03-07T14:27:33Z</time>
      </trkpt>
      <trkpt lat="45.85899" lon="4.78957">
        <ele>540.4</ele>
        <time>2015-03-07T14:27:37Z</time>
      </trkpt>
      <trkpt lat="45.85909" lon="4.78967">
        <ele>541.3</ele>
        <time>2015-03-07T14:27:42Z</time>
      </trkpt>
      <trkpt lat="45.85917" lon="4.78971">
        <ele>542.2</ele>
        <time>2015-03-07T14:27:48Z</time>
      </trkpt>
      <trkpt lat="45.85926" lon="4.78975">
        <ele>544.7</ele>
        <time>2015-03-07T14:27:53Z</time>
      </trkpt>
      <trkpt lat="45.85935" lon="4.78979">
        <ele>546</ele>
        <time>2015-03-07T14:27:57Z</time>
      </trkpt>
      <trkpt lat="45.85943" lon="4.78983">
        <ele>547.3</ele>
        <time>2015-03-07T14:28:03Z</time>
      </trkpt>
      <trkpt lat="45.85951" lon="4.78988">
        <ele>548.4</ele>
        <time>2015-03-07T14:28:07Z</time>
      </trkpt>
      <trkpt lat="45.85959" lon="4.78995">
        <ele>549.8</ele>
        <time>2015-03-07T14:28:13Z</time>
      </trkpt>
      <trkpt lat="45.85965" lon="4.79007">
        <ele>551.3</ele>
        <time>2015-03-07T14:28:15Z</time>
      </trkpt>
      <trkpt lat="45.8597" lon="4.79017">
        <ele>552.7</ele>
        <time>2015-03-07T14:28:17Z</time>
      </trkpt>
      <trkpt lat="45.85974" lon="4.79031">
        <ele>554.2</ele>
        <time>2015-03-07T14:28:20Z</time>
      </trkpt>
      <trkpt lat="45.85974" lon="4.79046">
        <ele>555.6</ele>
        <time>2015-03-07T14:28:24Z</time>
      </trkpt>
      <trkpt lat="45.85976" lon="4.7906">
        <ele>557.1</ele>
        <time>2015-03-07T14:28:29Z</time>
      </trkpt>
      <trkpt lat="45.85977" lon="4.79073">
        <ele>558.5</ele>
        <time>2015-03-07T14:28:34Z</time>
      </trkpt>
      <trkpt lat="45.8598" lon="4.79084">
        <ele>557.5</ele>
        <time>2015-03-07T14:28:39Z</time>
      </trkpt>
      <trkpt lat="45.85985" lon="4.79096">
        <ele>556.5</ele>
        <time>2015-03-07T14:28:44Z</time>
      </trkpt>
      <trkpt lat="45.85989" lon="4.79109">
        <ele>555.5</ele>
        <time>2015-03-07T14:28:48Z</time>
      </trkpt>
      <trkpt lat="45.85994" lon="4.79121">
        <ele>554.7</ele>
        <time>2015-03-07T14:28:54Z</time>
      </trkpt>
      <trkpt lat="45.86" lon="4.79133">
        <ele>553.9</ele>
        <time>2015-03-07T14:28:58Z</time>
      </trkpt>
      <trkpt lat="45.86006" lon="4.79143">
        <ele>553.1</ele>
        <time>2015-03-07T14:29:02Z</time>
      </trkpt>
      <trkpt lat="45.86011" lon="4.79152">
        <ele>552.3</ele>
        <time>2015-03-07T14:29:07Z</time>
      </trkpt>
      <trkpt lat="45.86017" lon="4.79162">
        <ele>552.5</ele>
        <time>2015-03-07T14:29:12Z</time>
      </trkpt>
      <trkpt lat="45.86022" lon="4.79171">
        <ele>552.8</ele>
        <time>2015-03-07T14:29:18Z</time>
      </trkpt>
      <trkpt lat="45.86029" lon="4.79181">
        <ele>553.1</ele>
        <time>2015-03-07T14:29:23Z</time>
      </trkpt>
      <trkpt lat="45.86036" lon="4.7919">
        <ele>553.4</ele>
        <time>2015-03-07T14:29:27Z</time>
      </trkpt>
      <trkpt lat="45.86044" lon="4.79201">
        <ele>554.5</ele>
        <time>2015-03-07T14:29:35Z</time>
      </trkpt>
      <trkpt lat="45.86053" lon="4.79206">
        <ele>555.5</ele>
        <time>2015-03-07T14:29:41Z</time>
      </trkpt>
      <trkpt lat="45.86066" lon="4.792">
        <ele>556.6</ele>
        <time>2015-03-07T14:29:45Z</time>
      </trkpt>
      <trkpt lat="45.86076" lon="4.79196">
        <ele>557.2</ele>
        <time>2015-03-07T14:29:48Z</time>
      </trkpt>
      <trkpt lat="45.86085" lon="4.79199">
        <ele>557.7</ele>
        <time>2015-03-07T14:29:51Z</time>
      </trkpt>
      <trkpt lat="45.86095" lon="4.79198">
        <ele>558.1</ele>
        <time>2015-03-07T14:29:54Z</time>
      </trkpt>
      <trkpt lat="45.86104" lon="4.79208">
        <ele>558.5</ele>
        <time>2015-03-07T14:29:59Z</time>
      </trkpt>
      <trkpt lat="45.86111" lon="4.79216">
        <ele>557.7</ele>
        <time>2015-03-07T14:30:01Z</time>
      </trkpt>
      <trkpt lat="45.86118" lon="4.79228">
        <ele>557</ele>
        <time>2015-03-07T14:30:04Z</time>
      </trkpt>
      <trkpt lat="45.86124" lon="4.79238">
        <ele>556.3</ele>
        <time>2015-03-07T14:30:06Z</time>
      </trkpt>
      <trkpt lat="45.86128" lon="4.79251">
        <ele>555.5</ele>
        <time>2015-03-07T14:30:08Z</time>
      </trkpt>
      <trkpt lat="45.86136" lon="4.79257">
        <ele>554.5</ele>
        <time>2015-03-07T14:30:11Z</time>
      </trkpt>
      <trkpt lat="45.86145" lon="4.79266">
        <ele>553.5</ele>
        <time>2015-03-07T14:30:13Z</time>
      </trkpt>
      <trkpt lat="45.86149" lon="4.79277">
        <ele>552.5</ele>
        <time>2015-03-07T14:30:15Z</time>
      </trkpt>
      <trkpt lat="45.86153" lon="4.79288">
        <ele>552.1</ele>
        <time>2015-03-07T14:30:18Z</time>
      </trkpt>
      <trkpt lat="45.86161" lon="4.79298">
        <ele>551.6</ele>
        <time>2015-03-07T14:30:23Z</time>
      </trkpt>
      <trkpt lat="45.86166" lon="4.79309">
        <ele>551.4</ele>
        <time>2015-03-07T14:30:27Z</time>
      </trkpt>
      <trkpt lat="45.86173" lon="4.79318">
        <ele>550.5</ele>
        <time>2015-03-07T14:30:32Z</time>
      </trkpt>
      <trkpt lat="45.86181" lon="4.79325">
        <ele>549.7</ele>
        <time>2015-03-07T14:30:38Z</time>
      </trkpt>
      <trkpt lat="45.86187" lon="4.79334">
        <ele>548.9</ele>
        <time>2015-03-07T14:30:43Z</time>
      </trkpt>
      <trkpt lat="45.86197" lon="4.79336">
        <ele>548.1</ele>
        <time>2015-03-07T14:30:47Z</time>
      </trkpt>
      <trkpt lat="45.86209" lon="4.79337">
        <ele>547.3</ele>
        <time>2015-03-07T14:30:52Z</time>
      </trkpt>
      <trkpt lat="45.86217" lon="4.7934">
        <ele>546.7</ele>
        <time>2015-03-07T14:30:55Z</time>
      </trkpt>
      <trkpt lat="45.86226" lon="4.79345">
        <ele>546.2</ele>
        <time>2015-03-07T14:30:59Z</time>
      </trkpt>
      <trkpt lat="45.86237" lon="4.79354">
        <ele>544.8</ele>
        <time>2015-03-07T14:31:03Z</time>
      </trkpt>
      <trkpt lat="45.86246" lon="4.79358">
        <ele>543.5</ele>
        <time>2015-03-07T14:31:06Z</time>
      </trkpt>
      <trkpt lat="45.86257" lon="4.79362">
        <ele>541.7</ele>
        <time>2015-03-07T14:31:09Z</time>
      </trkpt>
      <trkpt lat="45.86268" lon="4.79369">
        <ele>540</ele>
        <time>2015-03-07T14:31:11Z</time>
      </trkpt>
      <trkpt lat="45.86275" lon="4.79377">
        <ele>538.8</ele>
        <time>2015-03-07T14:31:13Z</time>
      </trkpt>
      <trkpt lat="45.86282" lon="4.79387">
        <ele>537.6</ele>
        <time>2015-03-07T14:31:17Z</time>
      </trkpt>
      <trkpt lat="45.86289" lon="4.79397">
        <ele>536.5</ele>
        <time>2015-03-07T14:31:20Z</time>
      </trkpt>
      <trkpt lat="45.86297" lon="4.79406">
        <ele>535.3</ele>
        <time>2015-03-07T14:31:23Z</time>
      </trkpt>
      <trkpt lat="45.86304" lon="4.79414">
        <ele>534.1</ele>
        <time>2015-03-07T14:31:25Z</time>
      </trkpt>
      <trkpt lat="45.86311" lon="4.79421">
        <ele>532</ele>
        <time>2015-03-07T14:31:28Z</time>
      </trkpt>
      <trkpt lat="45.86318" lon="4.79428">
        <ele>529.9</ele>
        <time>2015-03-07T14:31:30Z</time>
      </trkpt>
      <trkpt lat="45.86324" lon="4.79436">
        <ele>528.6</ele>
        <time>2015-03-07T14:31:33Z</time>
      </trkpt>
      <trkpt lat="45.86332" lon="4.79447">
        <ele>527.4</ele>
        <time>2015-03-07T14:31:37Z</time>
      </trkpt>
      <trkpt lat="45.86338" lon="4.79458">
        <ele>525.9</ele>
        <time>2015-03-07T14:31:39Z</time>
      </trkpt>
      <trkpt lat="45.86347" lon="4.7947">
        <ele>524.5</ele>
        <time>2015-03-07T14:31:42Z</time>
      </trkpt>
      <trkpt lat="45.86355" lon="4.79481">
        <ele>523</ele>
        <time>2015-03-07T14:31:46Z</time>
      </trkpt>
      <trkpt lat="45.86364" lon="4.79496">
        <ele>521.5</ele>
        <time>2015-03-07T14:31:49Z</time>
      </trkpt>
      <trkpt lat="45.86377" lon="4.79508">
        <ele>519.5</ele>
        <time>2015-03-07T14:31:51Z</time>
      </trkpt>
      <trkpt lat="45.86386" lon="4.79516">
        <ele>517.4</ele>
        <time>2015-03-07T14:31:54Z</time>
      </trkpt>
      <trkpt lat="45.86394" lon="4.79525">
        <ele>515.3</ele>
        <time>2015-03-07T14:31:57Z</time>
      </trkpt>
      <trkpt lat="45.864" lon="4.79533">
        <ele>514.1</ele>
        <time>2015-03-07T14:32:00Z</time>
      </trkpt>
      <trkpt lat="45.86406" lon="4.79542">
        <ele>512.9</ele>
        <time>2015-03-07T14:32:03Z</time>
      </trkpt>
      <trkpt lat="45.86411" lon="4.79554">
        <ele>511.7</ele>
        <time>2015-03-07T14:32:08Z</time>
      </trkpt>
      <trkpt lat="45.86408" lon="4.79572">
        <ele>509.2</ele>
        <time>2015-03-07T14:32:11Z</time>
      </trkpt>
      <trkpt lat="45.86406" lon="4.79584">
        <ele>506.7</ele>
        <time>2015-03-07T14:32:13Z</time>
      </trkpt>
      <trkpt lat="45.86402" lon="4.79596">
        <ele>504.7</ele>
        <time>2015-03-07T14:32:17Z</time>
      </trkpt>
      <trkpt lat="45.864" lon="4.7961">
        <ele>502.7</ele>
        <time>2015-03-07T14:32:23Z</time>
      </trkpt>
      <trkpt lat="45.86395" lon="4.79625">
        <ele>500.7</ele>
        <time>2015-03-07T14:32:26Z</time>
      </trkpt>
      <trkpt lat="45.86388" lon="4.79635">
        <ele>499.4</ele>
        <time>2015-03-07T14:32:28Z</time>
      </trkpt>
      <trkpt lat="45.86379" lon="4.79641">
        <ele>498</ele>
        <time>2015-03-07T14:32:31Z</time>
      </trkpt>
      <trkpt lat="45.86387" lon="4.79646">
        <ele>496.6</ele>
        <time>2015-03-07T14:32:36Z</time>
      </trkpt>
      <trkpt lat="45.86396" lon="4.79647">
        <ele>495.3</ele>
        <time>2015-03-07T14:32:40Z</time>
      </trkpt>
      <trkpt lat="45.86406" lon="4.79646">
        <ele>493.9</ele>
        <time>2015-03-07T14:32:46Z</time>
      </trkpt>
      <trkpt lat="45.86416" lon="4.79647">
        <ele>492.5</ele>
        <time>2015-03-07T14:32:50Z</time>
      </trkpt>
      <trkpt lat="45.86425" lon="4.79649">
        <ele>492.5</ele>
        <time>2015-03-07T14:32:55Z</time>
      </trkpt>
      <trkpt lat="45.86436" lon="4.7965">
        <ele>493</ele>
        <time>2015-03-07T14:32:58Z</time>
      </trkpt>
      <trkpt lat="45.86447" lon="4.7965">
        <ele>493</ele>
        <time>2015-03-07T14:33:01Z</time>
      </trkpt>
      <trkpt lat="45.86456" lon="4.79649">
        <ele>493</ele>
        <time>2015-03-07T14:33:03Z</time>
      </trkpt>
      <trkpt lat="45.86464" lon="4.79649">
        <ele>493</ele>
        <time>2015-03-07T14:33:05Z</time>
      </trkpt>
      <trkpt lat="45.86473" lon="4.79651">
        <ele>493</ele>
        <time>2015-03-07T14:33:08Z</time>
      </trkpt>
      <trkpt lat="45.86487" lon="4.79653">
        <ele>493</ele>
        <time>2015-03-07T14:33:11Z</time>
      </trkpt>
      <trkpt lat="45.86498" lon="4.79654">
        <ele>493</ele>
        <time>2015-03-07T14:33:15Z</time>
      </trkpt>
      <trkpt lat="45.86508" lon="4.79655">
        <ele>492.5</ele>
        <time>2015-03-07T14:33:19Z</time>
      </trkpt>
      <trkpt lat="45.86515" lon="4.79665">
        <ele>491.9</ele>
        <time>2015-03-07T14:33:23Z</time>
      </trkpt>
      <trkpt lat="45.86523" lon="4.7967">
        <ele>491.4</ele>
        <time>2015-03-07T14:33:28Z</time>
      </trkpt>
      <trkpt lat="45.86532" lon="4.79672">
        <ele>490.8</ele>
        <time>2015-03-07T14:33:33Z</time>
      </trkpt>
      <trkpt lat="45.86539" lon="4.79666">
        <ele>490.3</ele>
        <time>2015-03-07T14:33:37Z</time>
      </trkpt>
      <trkpt lat="45.8655" lon="4.79659">
        <ele>489.7</ele>
        <time>2015-03-07T14:33:41Z</time>
      </trkpt>
      <trkpt lat="45.86558" lon="4.79652">
        <ele>489.2</ele>
        <time>2015-03-07T14:33:44Z</time>
      </trkpt>
      <trkpt lat="45.86564" lon="4.79645">
        <ele>488.6</ele>
        <time>2015-03-07T14:33:47Z</time>
      </trkpt>
      <trkpt lat="45.86572" lon="4.79636">
        <ele>488.1</ele>
        <time>2015-03-07T14:33:52Z</time>
      </trkpt>
      <trkpt lat="45.86579" lon="4.79627">
        <ele>487.5</ele>
        <time>2015-03-07T14:33:54Z</time>
      </trkpt>
      <trkpt lat="45.86584" lon="4.79614">
        <ele>486.1</ele>
        <time>2015-03-07T14:33:57Z</time>
      </trkpt>
      <trkpt lat="45.86587" lon="4.79596">
        <ele>485.2</ele>
        <time>2015-03-07T14:34:02Z</time>
      </trkpt>
      <trkpt lat="45.86586" lon="4.79581">
        <ele>484.3</ele>
        <time>2015-03-07T14:34:11Z</time>
      </trkpt>
      <trkpt lat="45.86583" lon="4.7957">
        <ele>485.8</ele>
        <time>2015-03-07T14:34:14Z</time>
      </trkpt>
      <trkpt lat="45.86578" lon="4.79557">
        <ele>487.4</ele>
        <time>2015-03-07T14:34:16Z</time>
      </trkpt>
      <trkpt lat="45.86567" lon="4.79541">
        <ele>488.9</ele>
        <time>2015-03-07T14:34:20Z</time>
      </trkpt>
      <trkpt lat="45.8656" lon="4.79531">
        <ele>490.5</ele>
        <time>2015-03-07T14:34:22Z</time>
      </trkpt>
      <trkpt lat="45.8655" lon="4.79521">
        <ele>492</ele>
        <time>2015-03-07T14:34:27Z</time>
      </trkpt>
      <trkpt lat="45.86543" lon="4.79513">
        <ele>492.4</ele>
        <time>2015-03-07T14:34:32Z</time>
      </trkpt>
      <trkpt lat="45.86538" lon="4.79502">
        <ele>492.7</ele>
        <time>2015-03-07T14:34:34Z</time>
      </trkpt>
      <trkpt lat="45.86532" lon="4.79492">
        <ele>493.1</ele>
        <time>2015-03-07T14:34:39Z</time>
      </trkpt>
      <trkpt lat="45.86525" lon="4.79487">
        <ele>494.4</ele>
        <time>2015-03-07T14:34:45Z</time>
      </trkpt>
      <trkpt lat="45.86521" lon="4.79467">
        <ele>495.6</ele>
        <time>2015-03-07T14:34:54Z</time>
      </trkpt>
      <trkpt lat="45.8652" lon="4.79452">
        <ele>496.9</ele>
        <time>2015-03-07T14:34:59Z</time>
      </trkpt>
      <trkpt lat="45.86515" lon="4.79435">
        <ele>493.7</ele>
        <time>2015-03-07T14:35:02Z</time>
      </trkpt>
      <trkpt lat="45.86511" lon="4.79424">
        <ele>490.5</ele>
        <time>2015-03-07T14:35:06Z</time>
      </trkpt>
      <trkpt lat="45.86503" lon="4.7941">
        <ele>487.4</ele>
        <time>2015-03-07T14:35:13Z</time>
      </trkpt>
      <trkpt lat="45.86498" lon="4.79398">
        <ele>484.2</ele>
        <time>2015-03-07T14:35:18Z</time>
      </trkpt>
      <trkpt lat="45.86495" lon="4.79387">
        <ele>481</ele>
        <time>2015-03-07T14:35:24Z</time>
      </trkpt>
      <trkpt lat="45.8649" lon="4.79376">
        <ele>481</ele>
        <time>2015-03-07T14:35:30Z</time>
      </trkpt>
      <trkpt lat="45.86495" lon="4.79366">
        <ele>481</ele>
        <time>2015-03-07T14:35:37Z</time>
      </trkpt>
      <trkpt lat="45.86507" lon="4.79369">
        <ele>478.2</ele>
        <time>2015-03-07T14:35:40Z</time>
      </trkpt>
      <trkpt lat="45.86514" lon="4.79374">
        <ele>475.4</ele>
        <time>2015-03-07T14:35:41Z</time>
      </trkpt>
      <trkpt lat="45.86524" lon="4.79383">
        <ele>472.5</ele>
        <time>2015-03-07T14:35:43Z</time>
      </trkpt>
      <trkpt lat="45.86533" lon="4.79391">
        <ele>469.7</ele>
        <time>2015-03-07T14:35:45Z</time>
      </trkpt>
      <trkpt lat="45.86542" lon="4.79404">
        <ele>468.9</ele>
        <time>2015-03-07T14:35:47Z</time>
      </trkpt>
      <trkpt lat="45.86549" lon="4.79416">
        <ele>469.6</ele>
        <time>2015-03-07T14:35:50Z</time>
      </trkpt>
      <trkpt lat="45.86557" lon="4.79427">
        <ele>470.4</ele>
        <time>2015-03-07T14:35:52Z</time>
      </trkpt>
      <trkpt lat="45.86562" lon="4.79437">
        <ele>471.1</ele>
        <time>2015-03-07T14:35:54Z</time>
      </trkpt>
      <trkpt lat="45.8657" lon="4.79448">
        <ele>471.8</ele>
        <time>2015-03-07T14:35:56Z</time>
      </trkpt>
      <trkpt lat="45.86575" lon="4.79458">
        <ele>470.5</ele>
        <time>2015-03-07T14:35:58Z</time>
      </trkpt>
      <trkpt lat="45.86583" lon="4.79467">
        <ele>469.3</ele>
        <time>2015-03-07T14:36:00Z</time>
      </trkpt>
      <trkpt lat="45.86591" lon="4.79474">
        <ele>470.8</ele>
        <time>2015-03-07T14:36:03Z</time>
      </trkpt>
      <trkpt lat="45.86599" lon="4.79481">
        <ele>469.2</ele>
        <time>2015-03-07T14:36:06Z</time>
      </trkpt>
      <trkpt lat="45.86607" lon="4.79489">
        <ele>467.5</ele>
        <time>2015-03-07T14:36:09Z</time>
      </trkpt>
      <trkpt lat="45.86615" lon="4.79497">
        <ele>466.6</ele>
        <time>2015-03-07T14:36:12Z</time>
      </trkpt>
      <trkpt lat="45.8662" lon="4.7951">
        <ele>465.7</ele>
        <time>2015-03-07T14:36:16Z</time>
      </trkpt>
      <trkpt lat="45.86624" lon="4.79519">
        <ele>463.3</ele>
        <time>2015-03-07T14:36:18Z</time>
      </trkpt>
      <trkpt lat="45.86632" lon="4.7953">
        <ele>460.8</ele>
        <time>2015-03-07T14:36:21Z</time>
      </trkpt>
      <trkpt lat="45.86639" lon="4.7954">
        <ele>458.4</ele>
        <time>2015-03-07T14:36:24Z</time>
      </trkpt>
      <trkpt lat="45.86646" lon="4.79554">
        <ele>455.9</ele>
        <time>2015-03-07T14:36:28Z</time>
      </trkpt>
      <trkpt lat="45.86652" lon="4.79566">
        <ele>453.5</ele>
        <time>2015-03-07T14:36:30Z</time>
      </trkpt>
      <trkpt lat="45.86656" lon="4.79576">
        <ele>451</ele>
        <time>2015-03-07T14:36:32Z</time>
      </trkpt>
      <trkpt lat="45.86662" lon="4.7959">
        <ele>448.5</ele>
        <time>2015-03-07T14:36:34Z</time>
      </trkpt>
      <trkpt lat="45.86665" lon="4.79601">
        <ele>449.3</ele>
        <time>2015-03-07T14:36:36Z</time>
      </trkpt>
      <trkpt lat="45.8667" lon="4.79611">
        <ele>450</ele>
        <time>2015-03-07T14:36:38Z</time>
      </trkpt>
      <trkpt lat="45.86671" lon="4.79626">
        <ele>450</ele>
        <time>2015-03-07T14:36:42Z</time>
      </trkpt>
      <trkpt lat="45.86678" lon="4.79618">
        <ele>450</ele>
        <time>2015-03-07T14:36:49Z</time>
      </trkpt>
      <trkpt lat="45.86677" lon="4.79606">
        <ele>449.3</ele>
        <time>2015-03-07T14:36:56Z</time>
      </trkpt>
      <trkpt lat="45.86671" lon="4.79593">
        <ele>448.5</ele>
        <time>2015-03-07T14:36:59Z</time>
      </trkpt>
      <trkpt lat="45.86664" lon="4.79581">
        <ele>447.8</ele>
        <time>2015-03-07T14:37:02Z</time>
      </trkpt>
      <trkpt lat="45.8666" lon="4.79569">
        <ele>447.1</ele>
        <time>2015-03-07T14:37:05Z</time>
      </trkpt>
      <trkpt lat="45.8666" lon="4.79557">
        <ele>446.4</ele>
        <time>2015-03-07T14:37:09Z</time>
      </trkpt>
      <trkpt lat="45.8666" lon="4.79542">
        <ele>445.6</ele>
        <time>2015-03-07T14:37:12Z</time>
      </trkpt>
      <trkpt lat="45.86659" lon="4.7953">
        <ele>444.2</ele>
        <time>2015-03-07T14:37:14Z</time>
      </trkpt>
      <trkpt lat="45.86658" lon="4.79518">
        <ele>442.7</ele>
        <time>2015-03-07T14:37:16Z</time>
      </trkpt>
      <trkpt lat="45.86659" lon="4.79504">
        <ele>441.3</ele>
        <time>2015-03-07T14:37:19Z</time>
      </trkpt>
      <trkpt lat="45.86658" lon="4.79486">
        <ele>439.8</ele>
        <time>2015-03-07T14:37:23Z</time>
      </trkpt>
      <trkpt lat="45.86658" lon="4.79473">
        <ele>438.4</ele>
        <time>2015-03-07T14:37:25Z</time>
      </trkpt>
      <trkpt lat="45.86658" lon="4.7946">
        <ele>437.6</ele>
        <time>2015-03-07T14:37:27Z</time>
      </trkpt>
      <trkpt lat="45.86658" lon="4.79447">
        <ele>436.8</ele>
        <time>2015-03-07T14:37:29Z</time>
      </trkpt>
      <trkpt lat="45.86657" lon="4.79435">
        <ele>436</ele>
        <time>2015-03-07T14:37:31Z</time>
      </trkpt>
      <trkpt lat="45.86655" lon="4.79421">
        <ele>435.2</ele>
        <time>2015-03-07T14:37:35Z</time>
      </trkpt>
      <trkpt lat="45.86655" lon="4.79407">
        <ele>434.4</ele>
        <time>2015-03-07T14:37:37Z</time>
      </trkpt>
      <trkpt lat="45.86655" lon="4.79394">
        <ele>433.5</ele>
        <time>2015-03-07T14:37:40Z</time>
      </trkpt>
      <trkpt lat="45.86657" lon="4.79376">
        <ele>433.5</ele>
        <time>2015-03-07T14:37:43Z</time>
      </trkpt>
      <trkpt lat="45.86658" lon="4.79364">
        <ele>433</ele>
        <time>2015-03-07T14:37:45Z</time>
      </trkpt>
      <trkpt lat="45.86656" lon="4.79349">
        <ele>432.5</ele>
        <time>2015-03-07T14:37:48Z</time>
      </trkpt>
      <trkpt lat="45.86657" lon="4.79332">
        <ele>432.1</ele>
        <time>2015-03-07T14:37:51Z</time>
      </trkpt>
      <trkpt lat="45.86658" lon="4.79319">
        <ele>431.6</ele>
        <time>2015-03-07T14:37:53Z</time>
      </trkpt>
      <trkpt lat="45.86659" lon="4.79303">
        <ele>431.2</ele>
        <time>2015-03-07T14:37:56Z</time>
      </trkpt>
      <trkpt lat="45.8666" lon="4.79287">
        <ele>430.7</ele>
        <time>2015-03-07T14:38:00Z</time>
      </trkpt>
      <trkpt lat="45.86658" lon="4.79273">
        <ele>430.3</ele>
        <time>2015-03-07T14:38:04Z</time>
      </trkpt>
      <trkpt lat="45.86657" lon="4.79258">
        <ele>429.8</ele>
        <time>2015-03-07T14:38:08Z</time>
      </trkpt>
      <trkpt lat="45.86656" lon="4.79243">
        <ele>429.4</ele>
        <time>2015-03-07T14:38:11Z</time>
      </trkpt>
      <trkpt lat="45.86655" lon="4.79226">
        <ele>428.9</ele>
        <time>2015-03-07T14:38:15Z</time>
      </trkpt>
      <trkpt lat="45.86657" lon="4.79214">
        <ele>428.5</ele>
        <time>2015-03-07T14:38:17Z</time>
      </trkpt>
      <trkpt lat="45.86661" lon="4.79201">
        <ele>428.6</ele>
        <time>2015-03-07T14:38:20Z</time>
      </trkpt>
      <trkpt lat="45.86662" lon="4.79187">
        <ele>428.8</ele>
        <time>2015-03-07T14:38:23Z</time>
      </trkpt>
      <trkpt lat="45.86666" lon="4.79175">
        <ele>429</ele>
        <time>2015-03-07T14:38:26Z</time>
      </trkpt>
      <trkpt lat="45.8667" lon="4.79161">
        <ele>429.2</ele>
        <time>2015-03-07T14:38:29Z</time>
      </trkpt>
      <trkpt lat="45.86674" lon="4.79149">
        <ele>429.4</ele>
        <time>2015-03-07T14:38:32Z</time>
      </trkpt>
      <trkpt lat="45.86677" lon="4.79133">
        <ele>429.6</ele>
        <time>2015-03-07T14:38:35Z</time>
      </trkpt>
      <trkpt lat="45.8668" lon="4.79119">
        <ele>428.8</ele>
        <time>2015-03-07T14:38:39Z</time>
      </trkpt>
      <trkpt lat="45.86686" lon="4.79109">
        <ele>428</ele>
        <time>2015-03-07T14:38:42Z</time>
      </trkpt>
      <trkpt lat="45.86693" lon="4.79099">
        <ele>427.2</ele>
        <time>2015-03-07T14:38:45Z</time>
      </trkpt>
      <trkpt lat="45.86699" lon="4.79089">
        <ele>426.4</ele>
        <time>2015-03-07T14:38:48Z</time>
      </trkpt>
      <trkpt lat="45.86705" lon="4.79077">
        <ele>425.5</ele>
        <time>2015-03-07T14:38:52Z</time>
      </trkpt>
      <trkpt lat="45.86712" lon="4.79065">
        <ele>424.5</ele>
        <time>2015-03-07T14:38:55Z</time>
      </trkpt>
      <trkpt lat="45.86719" lon="4.79053">
        <ele>423.4</ele>
        <time>2015-03-07T14:38:58Z</time>
      </trkpt>
      <trkpt lat="45.86725" lon="4.79042">
        <ele>422.3</ele>
        <time>2015-03-07T14:39:01Z</time>
      </trkpt>
      <trkpt lat="45.86731" lon="4.7903">
        <ele>420.8</ele>
        <time>2015-03-07T14:39:05Z</time>
      </trkpt>
      <trkpt lat="45.86736" lon="4.79019">
        <ele>419.4</ele>
        <time>2015-03-07T14:39:08Z</time>
      </trkpt>
      <trkpt lat="45.8674" lon="4.79007">
        <ele>417.9</ele>
        <time>2015-03-07T14:39:11Z</time>
      </trkpt>
      <trkpt lat="45.86742" lon="4.78995">
        <ele>417.5</ele>
        <time>2015-03-07T14:39:14Z</time>
      </trkpt>
      <trkpt lat="45.86744" lon="4.7898">
        <ele>417.2</ele>
        <time>2015-03-07T14:39:16Z</time>
      </trkpt>
      <trkpt lat="45.86747" lon="4.78952">
        <ele>416.8</ele>
        <time>2015-03-07T14:39:23Z</time>
      </trkpt>
      <trkpt lat="45.86756" lon="4.78934">
        <ele>415.6</ele>
        <time>2015-03-07T14:39:29Z</time>
      </trkpt>
      <trkpt lat="45.86761" lon="4.78922">
        <ele>414.5</ele>
        <time>2015-03-07T14:39:33Z</time>
      </trkpt>
      <trkpt lat="45.86762" lon="4.78908">
        <ele>413.3</ele>
        <time>2015-03-07T14:39:35Z</time>
      </trkpt>
      <trkpt lat="45.86761" lon="4.78893">
        <ele>412.1</ele>
        <time>2015-03-07T14:39:38Z</time>
      </trkpt>
      <trkpt lat="45.86758" lon="4.78878">
        <ele>410.9</ele>
        <time>2015-03-07T14:39:41Z</time>
      </trkpt>
      <trkpt lat="45.86751" lon="4.78868">
        <ele>410.1</ele>
        <time>2015-03-07T14:39:46Z</time>
      </trkpt>
      <trkpt lat="45.86746" lon="4.78858">
        <ele>409.8</ele>
        <time>2015-03-07T14:39:49Z</time>
      </trkpt>
      <trkpt lat="45.86739" lon="4.78851">
        <ele>409.5</ele>
        <time>2015-03-07T14:39:52Z</time>
      </trkpt>
      <trkpt lat="45.86731" lon="4.78845">
        <ele>409.3</ele>
        <time>2015-03-07T14:39:55Z</time>
      </trkpt>
      <trkpt lat="45.86722" lon="4.78839">
        <ele>409</ele>
        <time>2015-03-07T14:40:00Z</time>
      </trkpt>
      <trkpt lat="45.86713" lon="4.78832">
        <ele>408.7</ele>
        <time>2015-03-07T14:40:04Z</time>
      </trkpt>
      <trkpt lat="45.86704" lon="4.78828">
        <ele>409.3</ele>
        <time>2015-03-07T14:40:08Z</time>
      </trkpt>
      <trkpt lat="45.86695" lon="4.78828">
        <ele>409.8</ele>
        <time>2015-03-07T14:40:12Z</time>
      </trkpt>
      <trkpt lat="45.86686" lon="4.78827">
        <ele>410.4</ele>
        <time>2015-03-07T14:40:15Z</time>
      </trkpt>
      <trkpt lat="45.86676" lon="4.78826">
        <ele>411.8</ele>
        <time>2015-03-07T14:40:19Z</time>
      </trkpt>
      <trkpt lat="45.86664" lon="4.78826">
        <ele>413.3</ele>
        <time>2015-03-07T14:40:23Z</time>
      </trkpt>
      <trkpt lat="45.86653" lon="4.78824">
        <ele>414.7</ele>
        <time>2015-03-07T14:40:26Z</time>
      </trkpt>
      <trkpt lat="45.8664" lon="4.78822">
        <ele>415.6</ele>
        <time>2015-03-07T14:40:31Z</time>
      </trkpt>
      <trkpt lat="45.8663" lon="4.78819">
        <ele>415.5</ele>
        <time>2015-03-07T14:40:34Z</time>
      </trkpt>
      <trkpt lat="45.86622" lon="4.78815">
        <ele>415.5</ele>
        <time>2015-03-07T14:40:37Z</time>
      </trkpt>
      <trkpt lat="45.86611" lon="4.7881">
        <ele>415.4</ele>
        <time>2015-03-07T14:40:39Z</time>
      </trkpt>
      <trkpt lat="45.86602" lon="4.78805">
        <ele>415.3</ele>
        <time>2015-03-07T14:40:42Z</time>
      </trkpt>
      <trkpt lat="45.86593" lon="4.788">
        <ele>415.2</ele>
        <time>2015-03-07T14:40:46Z</time>
      </trkpt>
      <trkpt lat="45.86588" lon="4.78786">
        <ele>415.1</ele>
        <time>2015-03-07T14:40:52Z</time>
      </trkpt>
      <trkpt lat="45.86583" lon="4.78769">
        <ele>417.5</ele>
        <time>2015-03-07T14:40:55Z</time>
      </trkpt>
      <trkpt lat="45.86578" lon="4.78757">
        <ele>418.9</ele>
        <time>2015-03-07T14:41:00Z</time>
      </trkpt>
      <trkpt lat="45.86568" lon="4.78753">
        <ele>420.4</ele>
        <time>2015-03-07T14:41:05Z</time>
      </trkpt>
      <trkpt lat="45.86556" lon="4.78753">
        <ele>421.1</ele>
        <time>2015-03-07T14:41:08Z</time>
      </trkpt>
      <trkpt lat="45.86548" lon="4.7875">
        <ele>421.8</ele>
        <time>2015-03-07T14:41:12Z</time>
      </trkpt>
      <trkpt lat="45.8654" lon="4.78743">
        <ele>423.5</ele>
        <time>2015-03-07T14:41:18Z</time>
      </trkpt>
      <trkpt lat="45.8654" lon="4.7873">
        <ele>425.3</ele>
        <time>2015-03-07T14:41:22Z</time>
      </trkpt>
      <trkpt lat="45.86537" lon="4.78718">
        <ele>427</ele>
        <time>2015-03-07T14:41:26Z</time>
      </trkpt>
      <trkpt lat="45.86531" lon="4.78705">
        <ele>428.7</ele>
        <time>2015-03-07T14:41:33Z</time>
      </trkpt>
      <trkpt lat="45.86525" lon="4.78694">
        <ele>430.5</ele>
        <time>2015-03-07T14:41:37Z</time>
      </trkpt>
      <trkpt lat="45.86519" lon="4.78679">
        <ele>430.9</ele>
        <time>2015-03-07T14:41:43Z</time>
      </trkpt>
      <trkpt lat="45.86515" lon="4.78667">
        <ele>428.9</ele>
        <time>2015-03-07T14:41:47Z</time>
      </trkpt>
      <trkpt lat="45.8651" lon="4.78657">
        <ele>426.9</ele>
        <time>2015-03-07T14:41:50Z</time>
      </trkpt>
      <trkpt lat="45.86504" lon="4.78649">
        <ele>424.9</ele>
        <time>2015-03-07T14:41:55Z</time>
      </trkpt>
      <trkpt lat="45.86498" lon="4.78635">
        <ele>423.6</ele>
        <time>2015-03-07T14:41:59Z</time>
      </trkpt>
      <trkpt lat="45.86493" lon="4.78624">
        <ele>423.2</ele>
        <time>2015-03-07T14:42:04Z</time>
      </trkpt>
      <trkpt lat="45.86489" lon="4.78612">
        <ele>422.7</ele>
        <time>2015-03-07T14:42:15Z</time>
      </trkpt>
      <trkpt lat="45.86483" lon="4.78604">
        <ele>422.3</ele>
        <time>2015-03-07T14:42:21Z</time>
      </trkpt>
      <trkpt lat="45.86474" lon="4.78603">
        <ele>421.8</ele>
        <time>2015-03-07T14:42:25Z</time>
      </trkpt>
      <trkpt lat="45.86464" lon="4.78602">
        <ele>421.4</ele>
        <time>2015-03-07T14:42:30Z</time>
      </trkpt>
      <trkpt lat="45.86456" lon="4.78606">
        <ele>420.9</ele>
        <time>2015-03-07T14:42:35Z</time>
      </trkpt>
      <trkpt lat="45.86447" lon="4.78611">
        <ele>421.7</ele>
        <time>2015-03-07T14:42:38Z</time>
      </trkpt>
      <trkpt lat="45.86437" lon="4.78613">
        <ele>422.5</ele>
        <time>2015-03-07T14:42:41Z</time>
      </trkpt>
      <trkpt lat="45.86429" lon="4.78617">
        <ele>425.2</ele>
        <time>2015-03-07T14:42:44Z</time>
      </trkpt>
      <trkpt lat="45.86421" lon="4.7862">
        <ele>428.5</ele>
        <time>2015-03-07T14:42:48Z</time>
      </trkpt>
      <trkpt lat="45.86411" lon="4.78622">
        <ele>431.9</ele>
        <time>2015-03-07T14:42:52Z</time>
      </trkpt>
      <trkpt lat="45.86401" lon="4.78623">
        <ele>434.5</ele>
        <time>2015-03-07T14:42:54Z</time>
      </trkpt>
      <trkpt lat="45.86392" lon="4.78626">
        <ele>437</ele>
        <time>2015-03-07T14:42:56Z</time>
      </trkpt>
      <trkpt lat="45.86384" lon="4.78632">
        <ele>439.5</ele>
        <time>2015-03-07T14:43:00Z</time>
      </trkpt>
      <trkpt lat="45.86373" lon="4.78638">
        <ele>442.1</ele>
        <time>2015-03-07T14:43:03Z</time>
      </trkpt>
      <trkpt lat="45.86364" lon="4.78643">
        <ele>444.6</ele>
        <time>2015-03-07T14:43:06Z</time>
      </trkpt>
      <trkpt lat="45.86353" lon="4.78645">
        <ele>445.1</ele>
        <time>2015-03-07T14:43:10Z</time>
      </trkpt>
      <trkpt lat="45.86342" lon="4.78643">
        <ele>445.5</ele>
        <time>2015-03-07T14:43:15Z</time>
      </trkpt>
      <trkpt lat="45.86332" lon="4.78641">
        <ele>447.4</ele>
        <time>2015-03-07T14:43:18Z</time>
      </trkpt>
      <trkpt lat="45.86322" lon="4.78638">
        <ele>447.4</ele>
        <time>2015-03-07T14:43:22Z</time>
      </trkpt>
      <trkpt lat="45.8631" lon="4.78634">
        <ele>448.2</ele>
        <time>2015-03-07T14:43:26Z</time>
      </trkpt>
      <trkpt lat="45.86302" lon="4.7863">
        <ele>450.8</ele>
        <time>2015-03-07T14:43:28Z</time>
      </trkpt>
      <trkpt lat="45.86293" lon="4.78622">
        <ele>453.5</ele>
        <time>2015-03-07T14:43:31Z</time>
      </trkpt>
      <trkpt lat="45.86284" lon="4.78614">
        <ele>456.1</ele>
        <time>2015-03-07T14:43:34Z</time>
      </trkpt>
      <trkpt lat="45.86275" lon="4.78608">
        <ele>458.7</ele>
        <time>2015-03-07T14:43:36Z</time>
      </trkpt>
      <trkpt lat="45.86153" lon="4.78536">
        <ele>461.4</ele>
        <time>2015-03-07T14:43:48Z</time>
      </trkpt>
      <trkpt lat="45.86123" lon="4.7845">
        <ele>464.5</ele>
        <time>2015-03-07T14:43:53Z</time>
      </trkpt>
      <trkpt lat="45.86125" lon="4.78433">
        <ele>469.8</ele>
        <time>2015-03-07T14:44:03Z</time>
      </trkpt>
      <trkpt lat="45.86124" lon="4.7842">
        <ele>475.1</ele>
        <time>2015-03-07T14:44:07Z</time>
      </trkpt>
      <trkpt lat="45.86123" lon="4.78408">
        <ele>479</ele>
        <time>2015-03-07T14:44:10Z</time>
      </trkpt>
      <trkpt lat="45.8612" lon="4.78392">
        <ele>482.9</ele>
        <time>2015-03-07T14:44:16Z</time>
      </trkpt>
      <trkpt lat="45.86121" lon="4.78379">
        <ele>485.3</ele>
        <time>2015-03-07T14:44:21Z</time>
      </trkpt>
      <trkpt lat="45.86121" lon="4.78367">
        <ele>485.5</ele>
        <time>2015-03-07T14:44:24Z</time>
      </trkpt>
      <trkpt lat="45.86122" lon="4.78355">
        <ele>485.8</ele>
        <time>2015-03-07T14:44:28Z</time>
      </trkpt>
      <trkpt lat="45.86121" lon="4.78338">
        <ele>486.1</ele>
        <time>2015-03-07T14:44:32Z</time>
      </trkpt>
      <trkpt lat="45.8612" lon="4.78324">
        <ele>486.4</ele>
        <time>2015-03-07T14:44:36Z</time>
      </trkpt>
      <trkpt lat="45.86118" lon="4.78311">
        <ele>486.6</ele>
        <time>2015-03-07T14:44:40Z</time>
      </trkpt>
      <trkpt lat="45.86115" lon="4.78299">
        <ele>486.4</ele>
        <time>2015-03-07T14:44:46Z</time>
      </trkpt>
      <trkpt lat="45.86111" lon="4.78289">
        <ele>486.1</ele>
        <time>2015-03-07T14:44:51Z</time>
      </trkpt>
      <trkpt lat="45.86104" lon="4.78282">
        <ele>485.8</ele>
        <time>2015-03-07T14:44:55Z</time>
      </trkpt>
      <trkpt lat="45.86097" lon="4.78272">
        <ele>484.5</ele>
        <time>2015-03-07T14:45:01Z</time>
      </trkpt>
      <trkpt lat="45.86088" lon="4.78267">
        <ele>483.1</ele>
        <time>2015-03-07T14:45:05Z</time>
      </trkpt>
      <trkpt lat="45.86088" lon="4.78251">
        <ele>481.7</ele>
        <time>2015-03-07T14:45:11Z</time>
      </trkpt>
      <trkpt lat="45.86092" lon="4.7824">
        <ele>480.6</ele>
        <time>2015-03-07T14:45:16Z</time>
      </trkpt>
      <trkpt lat="45.86098" lon="4.7823">
        <ele>479.5</ele>
        <time>2015-03-07T14:45:24Z</time>
      </trkpt>
      <trkpt lat="45.86101" lon="4.78216">
        <ele>478.3</ele>
        <time>2015-03-07T14:45:34Z</time>
      </trkpt>
      <trkpt lat="45.86099" lon="4.78201">
        <ele>477</ele>
        <time>2015-03-07T14:45:39Z</time>
      </trkpt>
      <trkpt lat="45.86102" lon="4.78189">
        <ele>475.9</ele>
        <time>2015-03-07T14:45:42Z</time>
      </trkpt>
      <trkpt lat="45.86111" lon="4.78186">
        <ele>474.8</ele>
        <time>2015-03-07T14:45:45Z</time>
      </trkpt>
      <trkpt lat="45.8612" lon="4.78182">
        <ele>473.7</ele>
        <time>2015-03-07T14:45:47Z</time>
      </trkpt>
      <trkpt lat="45.86129" lon="4.78183">
        <ele>472.6</ele>
        <time>2015-03-07T14:45:52Z</time>
      </trkpt>
      <trkpt lat="45.8613" lon="4.78171">
        <ele>470.7</ele>
        <time>2015-03-07T14:46:03Z</time>
      </trkpt>
      <trkpt lat="45.86123" lon="4.78163">
        <ele>468.8</ele>
        <time>2015-03-07T14:46:05Z</time>
      </trkpt>
      <trkpt lat="45.86115" lon="4.78158">
        <ele>466.9</ele>
        <time>2015-03-07T14:46:07Z</time>
      </trkpt>
      <trkpt lat="45.86107" lon="4.78153">
        <ele>465.3</ele>
        <time>2015-03-07T14:46:09Z</time>
      </trkpt>
      <trkpt lat="45.861" lon="4.78145">
        <ele>463.6</ele>
        <time>2015-03-07T14:46:11Z</time>
      </trkpt>
      <trkpt lat="45.86099" lon="4.78133">
        <ele>462.2</ele>
        <time>2015-03-07T14:46:16Z</time>
      </trkpt>
      <trkpt lat="45.86109" lon="4.78123">
        <ele>460.7</ele>
        <time>2015-03-07T14:46:18Z</time>
      </trkpt>
      <trkpt lat="45.86122" lon="4.78117">
        <ele>459.1</ele>
        <time>2015-03-07T14:46:20Z</time>
      </trkpt>
      <trkpt lat="45.86132" lon="4.78112">
        <ele>455.1</ele>
        <time>2015-03-07T14:46:22Z</time>
      </trkpt>
      <trkpt lat="45.86143" lon="4.7811">
        <ele>449</ele>
        <time>2015-03-07T14:46:24Z</time>
      </trkpt>
      <trkpt lat="45.86155" lon="4.78104">
        <ele>442.9</ele>
        <time>2015-03-07T14:46:26Z</time>
      </trkpt>
      <trkpt lat="45.8617" lon="4.78105">
        <ele>438.7</ele>
        <time>2015-03-07T14:46:29Z</time>
      </trkpt>
      <trkpt lat="45.86183" lon="4.78107">
        <ele>434.5</ele>
        <time>2015-03-07T14:46:31Z</time>
      </trkpt>
      <trkpt lat="45.86348" lon="4.78137">
        <ele>430.4</ele>
        <time>2015-03-07T14:46:34Z</time>
      </trkpt>
      <trkpt lat="45.86501" lon="4.78134">
        <ele>425.9</ele>
        <time>2015-03-07T14:46:37Z</time>
      </trkpt>
      <trkpt lat="45.86509" lon="4.7813">
        <ele>420.4</ele>
        <time>2015-03-07T14:46:40Z</time>
      </trkpt>
      <trkpt lat="45.86518" lon="4.78129">
        <ele>414.8</ele>
        <time>2015-03-07T14:46:44Z</time>
      </trkpt>
      <trkpt lat="45.86527" lon="4.78123">
        <ele>409.3</ele>
        <time>2015-03-07T14:46:48Z</time>
      </trkpt>
      <trkpt lat="45.86538" lon="4.78122">
        <ele>403.7</ele>
        <time>2015-03-07T14:46:53Z</time>
      </trkpt>
      <trkpt lat="45.86546" lon="4.78114">
        <ele>400.5</ele>
        <time>2015-03-07T14:46:58Z</time>
      </trkpt>
      <trkpt lat="45.86554" lon="4.78109">
        <ele>399.5</ele>
        <time>2015-03-07T14:47:01Z</time>
      </trkpt>
      <trkpt lat="45.86563" lon="4.78103">
        <ele>398.4</ele>
        <time>2015-03-07T14:47:04Z</time>
      </trkpt>
      <trkpt lat="45.86572" lon="4.78095">
        <ele>397.3</ele>
        <time>2015-03-07T14:47:09Z</time>
      </trkpt>
      <trkpt lat="45.8658" lon="4.78088">
        <ele>396.2</ele>
        <time>2015-03-07T14:47:12Z</time>
      </trkpt>
      <trkpt lat="45.86587" lon="4.78078">
        <ele>393.2</ele>
        <time>2015-03-07T14:47:16Z</time>
      </trkpt>
      <trkpt lat="45.86593" lon="4.78071">
        <ele>390.2</ele>
        <time>2015-03-07T14:47:19Z</time>
      </trkpt>
      <trkpt lat="45.86603" lon="4.78076">
        <ele>388.3</ele>
        <time>2015-03-07T14:47:22Z</time>
      </trkpt>
      <trkpt lat="45.86613" lon="4.78078">
        <ele>386.4</ele>
        <time>2015-03-07T14:47:24Z</time>
      </trkpt>
      <trkpt lat="45.86623" lon="4.78079">
        <ele>384.5</ele>
        <time>2015-03-07T14:47:27Z</time>
      </trkpt>
      <trkpt lat="45.86631" lon="4.78079">
        <ele>382.5</ele>
        <time>2015-03-07T14:47:30Z</time>
      </trkpt>
      <trkpt lat="45.8664" lon="4.78076">
        <ele>380.6</ele>
        <time>2015-03-07T14:47:34Z</time>
      </trkpt>
      <trkpt lat="45.86649" lon="4.7807">
        <ele>378.7</ele>
        <time>2015-03-07T14:47:38Z</time>
      </trkpt>
      <trkpt lat="45.86658" lon="4.78068">
        <ele>376.8</ele>
        <time>2015-03-07T14:47:42Z</time>
      </trkpt>
      <trkpt lat="45.86668" lon="4.78066">
        <ele>372.8</ele>
        <time>2015-03-07T14:47:45Z</time>
      </trkpt>
      <trkpt lat="45.86678" lon="4.7807">
        <ele>368.8</ele>
        <time>2015-03-07T14:47:48Z</time>
      </trkpt>
      <trkpt lat="45.86688" lon="4.78073">
        <ele>366.7</ele>
        <time>2015-03-07T14:47:51Z</time>
      </trkpt>
      <trkpt lat="45.86696" lon="4.7807">
        <ele>364.6</ele>
        <time>2015-03-07T14:47:54Z</time>
      </trkpt>
      <trkpt lat="45.86706" lon="4.78068">
        <ele>362.5</ele>
        <time>2015-03-07T14:47:57Z</time>
      </trkpt>
      <trkpt lat="45.86714" lon="4.78065">
        <ele>360.5</ele>
        <time>2015-03-07T14:48:02Z</time>
      </trkpt>
      <trkpt lat="45.86724" lon="4.78072">
        <ele>358.4</ele>
        <time>2015-03-07T14:48:05Z</time>
      </trkpt>
      <trkpt lat="45.86733" lon="4.78071">
        <ele>356.3</ele>
        <time>2015-03-07T14:48:10Z</time>
      </trkpt>
      <trkpt lat="45.86743" lon="4.78071">
        <ele>354.2</ele>
        <time>2015-03-07T14:48:14Z</time>
      </trkpt>
      <trkpt lat="45.86752" lon="4.78072">
        <ele>350.4</ele>
        <time>2015-03-07T14:48:17Z</time>
      </trkpt>
      <trkpt lat="45.86761" lon="4.7807">
        <ele>346.5</ele>
        <time>2015-03-07T14:48:19Z</time>
      </trkpt>
      <trkpt lat="45.8677" lon="4.78071">
        <ele>344.8</ele>
        <time>2015-03-07T14:48:22Z</time>
      </trkpt>
      <trkpt lat="45.86781" lon="4.78076">
        <ele>343.1</ele>
        <time>2015-03-07T14:48:27Z</time>
      </trkpt>
      <trkpt lat="45.8679" lon="4.78072">
        <ele>341.4</ele>
        <time>2015-03-07T14:48:32Z</time>
      </trkpt>
      <trkpt lat="45.86802" lon="4.78072">
        <ele>339.6</ele>
        <time>2015-03-07T14:48:35Z</time>
      </trkpt>
      <trkpt lat="45.8681" lon="4.78076">
        <ele>337.9</ele>
        <time>2015-03-07T14:48:39Z</time>
      </trkpt>
      <trkpt lat="45.86818" lon="4.78081">
        <ele>336.2</ele>
        <time>2015-03-07T14:48:43Z</time>
      </trkpt>
      <trkpt lat="45.86828" lon="4.78079">
        <ele>336.2</ele>
        <time>2015-03-07T14:48:50Z</time>
      </trkpt>
      <trkpt lat="45.86826" lon="4.78064">
        <ele>336.2</ele>
        <time>2015-03-07T14:49:03Z</time>
      </trkpt>
      <trkpt lat="45.86819" lon="4.78055">
        <ele>335</ele>
        <time>2015-03-07T14:49:09Z</time>
      </trkpt>
      <trkpt lat="45.8681" lon="4.7805">
        <ele>335.5</ele>
        <time>2015-03-07T14:49:14Z</time>
      </trkpt>
      <trkpt lat="45.86801" lon="4.78046">
        <ele>336.1</ele>
        <time>2015-03-07T14:49:21Z</time>
      </trkpt>
      <trkpt lat="45.86792" lon="4.78043">
        <ele>336.6</ele>
        <time>2015-03-07T14:49:25Z</time>
      </trkpt>
      <trkpt lat="45.86783" lon="4.78043">
        <ele>337.2</ele>
        <time>2015-03-07T14:49:28Z</time>
      </trkpt>
      <trkpt lat="45.86776" lon="4.78036">
        <ele>337.7</ele>
        <time>2015-03-07T14:49:38Z</time>
      </trkpt>
      <trkpt lat="45.86767" lon="4.78032">
        <ele>340.1</ele>
        <time>2015-03-07T14:49:52Z</time>
      </trkpt>
      <trkpt lat="45.86755" lon="4.7802">
        <ele>342.5</ele>
        <time>2015-03-07T14:50:05Z</time>
      </trkpt>
      <trkpt lat="45.86747" lon="4.78013">
        <ele>344.8</ele>
        <time>2015-03-07T14:50:11Z</time>
      </trkpt>
      <trkpt lat="45.86728" lon="4.78017">
        <ele>345.5</ele>
        <time>2015-03-07T14:50:17Z</time>
      </trkpt>
      <trkpt lat="45.86716" lon="4.78022">
        <ele>346.1</ele>
        <time>2015-03-07T14:50:19Z</time>
      </trkpt>
      <trkpt lat="45.86709" lon="4.78031">
        <ele>347.9</ele>
        <time>2015-03-07T14:50:23Z</time>
      </trkpt>
      <trkpt lat="45.867" lon="4.78029">
        <ele>349.7</ele>
        <time>2015-03-07T14:50:29Z</time>
      </trkpt>
      <trkpt lat="45.8669" lon="4.78027">
        <ele>351.5</ele>
        <time>2015-03-07T14:50:32Z</time>
      </trkpt>
      <trkpt lat="45.86678" lon="4.78021">
        <ele>353.4</ele>
        <time>2015-03-07T14:50:39Z</time>
      </trkpt>
      <trkpt lat="45.86669" lon="4.78017">
        <ele>357.2</ele>
        <time>2015-03-07T14:50:42Z</time>
      </trkpt>
      <trkpt lat="45.86659" lon="4.78012">
        <ele>361</ele>
        <time>2015-03-07T14:50:47Z</time>
      </trkpt>
      <trkpt lat="45.8665" lon="4.78008">
        <ele>363</ele>
        <time>2015-03-07T14:50:52Z</time>
      </trkpt>
      <trkpt lat="45.86638" lon="4.78006">
        <ele>365</ele>
        <time>2015-03-07T14:50:58Z</time>
      </trkpt>
      <trkpt lat="45.8663" lon="4.78002">
        <ele>367</ele>
        <time>2015-03-07T14:51:03Z</time>
      </trkpt>
      <trkpt lat="45.86622" lon="4.77999">
        <ele>369</ele>
        <time>2015-03-07T14:51:08Z</time>
      </trkpt>
      <trkpt lat="45.86613" lon="4.77993">
        <ele>371</ele>
        <time>2015-03-07T14:51:10Z</time>
      </trkpt>
      <trkpt lat="45.86598" lon="4.77988">
        <ele>371.8</ele>
        <time>2015-03-07T14:51:19Z</time>
      </trkpt>
      <trkpt lat="45.8659" lon="4.77982">
        <ele>372.6</ele>
        <time>2015-03-07T14:51:24Z</time>
      </trkpt>
      <trkpt lat="45.8659" lon="4.77968">
        <ele>373.5</ele>
        <time>2015-03-07T14:51:40Z</time>
      </trkpt>
      <trkpt lat="45.8658" lon="4.77962">
        <ele>375.9</ele>
        <time>2015-03-07T14:51:44Z</time>
      </trkpt>
      <trkpt lat="45.86569" lon="4.7796">
        <ele>376.3</ele>
        <time>2015-03-07T14:51:48Z</time>
      </trkpt>
      <trkpt lat="45.86558" lon="4.77958">
        <ele>376.6</ele>
        <time>2015-03-07T14:51:53Z</time>
      </trkpt>
      <trkpt lat="45.86547" lon="4.77956">
        <ele>375.5</ele>
        <time>2015-03-07T14:51:58Z</time>
      </trkpt>
      <trkpt lat="45.86536" lon="4.77959">
        <ele>374.5</ele>
        <time>2015-03-07T14:52:01Z</time>
      </trkpt>
      <trkpt lat="45.86526" lon="4.77962">
        <ele>373.4</ele>
        <time>2015-03-07T14:52:04Z</time>
      </trkpt>
      <trkpt lat="45.86518" lon="4.77968">
        <ele>372.3</ele>
        <time>2015-03-07T14:52:09Z</time>
      </trkpt>
      <trkpt lat="45.8651" lon="4.77961">
        <ele>371.2</ele>
        <time>2015-03-07T14:52:14Z</time>
      </trkpt>
      <trkpt lat="45.86507" lon="4.77947">
        <ele>371.3</ele>
        <time>2015-03-07T14:52:18Z</time>
      </trkpt>
      <trkpt lat="45.86503" lon="4.77936">
        <ele>373.4</ele>
        <time>2015-03-07T14:52:24Z</time>
      </trkpt>
      <trkpt lat="45.86494" lon="4.77933">
        <ele>375.4</ele>
        <time>2015-03-07T14:52:30Z</time>
      </trkpt>
      <trkpt lat="45.86482" lon="4.7794">
        <ele>375.9</ele>
        <time>2015-03-07T14:52:35Z</time>
      </trkpt>
      <trkpt lat="45.86472" lon="4.77949">
        <ele>376.5</ele>
        <time>2015-03-07T14:52:37Z</time>
      </trkpt>
      <trkpt lat="45.86463" lon="4.77956">
        <ele>377</ele>
        <time>2015-03-07T14:52:40Z</time>
      </trkpt>
      <trkpt lat="45.86452" lon="4.77969">
        <ele>379</ele>
        <time>2015-03-07T14:52:42Z</time>
      </trkpt>
      <trkpt lat="45.86442" lon="4.77977">
        <ele>381</ele>
        <time>2015-03-07T14:52:44Z</time>
      </trkpt>
      <trkpt lat="45.86437" lon="4.77988">
        <ele>383</ele>
        <time>2015-03-07T14:52:47Z</time>
      </trkpt>
      <trkpt lat="45.8643" lon="4.77995">
        <ele>385</ele>
        <time>2015-03-07T14:52:49Z</time>
      </trkpt>
      <trkpt lat="45.86423" lon="4.78003">
        <ele>388.3</ele>
        <time>2015-03-07T14:52:51Z</time>
      </trkpt>
      <trkpt lat="45.86416" lon="4.78011">
        <ele>391.5</ele>
        <time>2015-03-07T14:52:53Z</time>
      </trkpt>
      <trkpt lat="45.86408" lon="4.78018">
        <ele>392.8</ele>
        <time>2015-03-07T14:52:55Z</time>
      </trkpt>
      <trkpt lat="45.86397" lon="4.78026">
        <ele>394.1</ele>
        <time>2015-03-07T14:52:58Z</time>
      </trkpt>
      <trkpt lat="45.86389" lon="4.78029">
        <ele>395.4</ele>
        <time>2015-03-07T14:53:02Z</time>
      </trkpt>
      <trkpt lat="45.86379" lon="4.78031">
        <ele>396.6</ele>
        <time>2015-03-07T14:53:05Z</time>
      </trkpt>
      <trkpt lat="45.86365" lon="4.7803">
        <ele>397.9</ele>
        <time>2015-03-07T14:53:10Z</time>
      </trkpt>
      <trkpt lat="45.86357" lon="4.78026">
        <ele>399.2</ele>
        <time>2015-03-07T14:53:14Z</time>
      </trkpt>
      <trkpt lat="45.8635" lon="4.78018">
        <ele>400.5</ele>
        <time>2015-03-07T14:53:18Z</time>
      </trkpt>
      <trkpt lat="45.86343" lon="4.78013">
        <ele>401.7</ele>
        <time>2015-03-07T14:53:21Z</time>
      </trkpt>
      <trkpt lat="45.86336" lon="4.78006">
        <ele>404.1</ele>
        <time>2015-03-07T14:53:27Z</time>
      </trkpt>
      <trkpt lat="45.86328" lon="4.78001">
        <ele>405.2</ele>
        <time>2015-03-07T14:53:33Z</time>
      </trkpt>
      <trkpt lat="45.86318" lon="4.78">
        <ele>406.3</ele>
        <time>2015-03-07T14:53:39Z</time>
      </trkpt>
      <trkpt lat="45.86307" lon="4.78001">
        <ele>408</ele>
        <time>2015-03-07T14:53:45Z</time>
      </trkpt>
      <trkpt lat="45.86296" lon="4.77999">
        <ele>409.7</ele>
        <time>2015-03-07T14:53:49Z</time>
      </trkpt>
      <trkpt lat="45.86272" lon="4.77994">
        <ele>411.5</ele>
        <time>2015-03-07T14:54:00Z</time>
      </trkpt>
      <trkpt lat="45.86239" lon="4.77981">
        <ele>413.2</ele>
        <time>2015-03-07T14:54:21Z</time>
      </trkpt>
      <trkpt lat="45.86216" lon="4.77983">
        <ele>414.9</ele>
        <time>2015-03-07T14:54:50Z</time>
      </trkpt>
      <trkpt lat="45.86209" lon="4.77991">
        <ele>416.6</ele>
        <time>2015-03-07T14:54:59Z</time>
      </trkpt>
      <trkpt lat="45.86202" lon="4.77998">
        <ele>418.4</ele>
        <time>2015-03-07T14:55:11Z</time>
      </trkpt>
      <trkpt lat="45.86193" lon="4.78">
        <ele>420.1</ele>
        <time>2015-03-07T14:55:20Z</time>
      </trkpt>
      <trkpt lat="45.86183" lon="4.77996">
        <ele>420.7</ele>
        <time>2015-03-07T14:55:24Z</time>
      </trkpt>
      <trkpt lat="45.86173" lon="4.7799">
        <ele>421.4</ele>
        <time>2015-03-07T14:55:32Z</time>
      </trkpt>
      <trkpt lat="45.86164" lon="4.77992">
        <ele>425</ele>
        <time>2015-03-07T14:55:38Z</time>
      </trkpt>
      <trkpt lat="45.86157" lon="4.77997">
        <ele>427.7</ele>
        <time>2015-03-07T14:55:43Z</time>
      </trkpt>
      <trkpt lat="45.86153" lon="4.78012">
        <ele>430.5</ele>
        <time>2015-03-07T14:55:49Z</time>
      </trkpt>
      <trkpt lat="45.86148" lon="4.78027">
        <ele>433.2</ele>
        <time>2015-03-07T14:55:51Z</time>
      </trkpt>
      <trkpt lat="45.8614" lon="4.7804">
        <ele>435.9</ele>
        <time>2015-03-07T14:55:56Z</time>
      </trkpt>
      <trkpt lat="45.86134" lon="4.78052">
        <ele>438.6</ele>
        <time>2015-03-07T14:55:59Z</time>
      </trkpt>
      <trkpt lat="45.86124" lon="4.78056">
        <ele>441.4</ele>
        <time>2015-03-07T14:56:02Z</time>
      </trkpt>
      <trkpt lat="45.86109" lon="4.78054">
        <ele>444.1</ele>
        <time>2015-03-07T14:56:04Z</time>
      </trkpt>
      <trkpt lat="45.86102" lon="4.78061">
        <ele>446.8</ele>
        <time>2015-03-07T14:56:05Z</time>
      </trkpt>
      <trkpt lat="45.86094" lon="4.78073">
        <ele>449.5</ele>
        <time>2015-03-07T14:56:07Z</time>
      </trkpt>
      <trkpt lat="45.86088" lon="4.78086">
        <ele>452.3</ele>
        <time>2015-03-07T14:56:09Z</time>
      </trkpt>
      <trkpt lat="45.86081" lon="4.78094">
        <ele>452</ele>
        <time>2015-03-07T14:56:11Z</time>
      </trkpt>
      <trkpt lat="45.86073" lon="4.781">
        <ele>450.5</ele>
        <time>2015-03-07T14:56:13Z</time>
      </trkpt>
      <trkpt lat="45.86064" lon="4.78097">
        <ele>449.1</ele>
        <time>2015-03-07T14:56:18Z</time>
      </trkpt>
      <trkpt lat="45.8606" lon="4.78085">
        <ele>447.6</ele>
        <time>2015-03-07T14:56:20Z</time>
      </trkpt>
      <trkpt lat="45.86058" lon="4.78071">
        <ele>446.2</ele>
        <time>2015-03-07T14:56:22Z</time>
      </trkpt>
      <trkpt lat="45.86053" lon="4.78058">
        <ele>441.6</ele>
        <time>2015-03-07T14:56:26Z</time>
      </trkpt>
      <trkpt lat="45.86043" lon="4.78056">
        <ele>437.1</ele>
        <time>2015-03-07T14:56:30Z</time>
      </trkpt>
      <trkpt lat="45.86033" lon="4.78059">
        <ele>432.5</ele>
        <time>2015-03-07T14:56:32Z</time>
      </trkpt>
      <trkpt lat="45.86024" lon="4.78057">
        <ele>428</ele>
        <time>2015-03-07T14:56:34Z</time>
      </trkpt>
      <trkpt lat="45.8598" lon="4.78043">
        <ele>423.5</ele>
        <time>2015-03-07T14:56:53Z</time>
      </trkpt>
      <trkpt lat="45.85915" lon="4.78001">
        <ele>418.9</ele>
        <time>2015-03-07T14:57:23Z</time>
      </trkpt>
      <trkpt lat="45.85907" lon="4.77997">
        <ele>414.4</ele>
        <time>2015-03-07T14:57:25Z</time>
      </trkpt>
      <trkpt lat="45.85897" lon="4.77996">
        <ele>411.1</ele>
        <time>2015-03-07T14:57:29Z</time>
      </trkpt>
      <trkpt lat="45.85888" lon="4.77994">
        <ele>407.8</ele>
        <time>2015-03-07T14:57:33Z</time>
      </trkpt>
      <trkpt lat="45.85884" lon="4.77982">
        <ele>404.7</ele>
        <time>2015-03-07T14:57:36Z</time>
      </trkpt>
      <trkpt lat="45.8589" lon="4.7797">
        <ele>401.6</ele>
        <time>2015-03-07T14:57:40Z</time>
      </trkpt>
      <trkpt lat="45.85895" lon="4.7796">
        <ele>401.5</ele>
        <time>2015-03-07T14:57:43Z</time>
      </trkpt>
      <trkpt lat="45.85903" lon="4.77956">
        <ele>401.3</ele>
        <time>2015-03-07T14:57:49Z</time>
      </trkpt>
      <trkpt lat="45.85914" lon="4.77958">
        <ele>401.5</ele>
        <time>2015-03-07T14:57:52Z</time>
      </trkpt>
      <trkpt lat="45.85922" lon="4.77965">
        <ele>401.6</ele>
        <time>2015-03-07T14:57:54Z</time>
      </trkpt>
      <trkpt lat="45.85935" lon="4.7796">
        <ele>401.8</ele>
        <time>2015-03-07T14:57:56Z</time>
      </trkpt>
      <trkpt lat="45.85947" lon="4.77958">
        <ele>402</ele>
        <time>2015-03-07T14:57:59Z</time>
      </trkpt>
      <trkpt lat="45.85959" lon="4.77958">
        <ele>400.3</ele>
        <time>2015-03-07T14:58:01Z</time>
      </trkpt>
      <trkpt lat="45.85968" lon="4.77962">
        <ele>398.7</ele>
        <time>2015-03-07T14:58:03Z</time>
      </trkpt>
      <trkpt lat="45.85977" lon="4.77965">
        <ele>397.2</ele>
        <time>2015-03-07T14:58:05Z</time>
      </trkpt>
      <trkpt lat="45.85987" lon="4.77966">
        <ele>395.5</ele>
        <time>2015-03-07T14:58:07Z</time>
      </trkpt>
      <trkpt lat="45.85997" lon="4.77964">
        <ele>393.7</ele>
        <time>2015-03-07T14:58:09Z</time>
      </trkpt>
      <trkpt lat="45.86005" lon="4.77958">
        <ele>392.5</ele>
        <time>2015-03-07T14:58:12Z</time>
      </trkpt>
      <trkpt lat="45.86015" lon="4.77953">
        <ele>391.4</ele>
        <time>2015-03-07T14:58:14Z</time>
      </trkpt>
      <trkpt lat="45.86025" lon="4.77947">
        <ele>389.8</ele>
        <time>2015-03-07T14:58:17Z</time>
      </trkpt>
      <trkpt lat="45.86032" lon="4.77941">
        <ele>388.3</ele>
        <time>2015-03-07T14:58:20Z</time>
      </trkpt>
      <trkpt lat="45.8604" lon="4.77933">
        <ele>386.7</ele>
        <time>2015-03-07T14:58:23Z</time>
      </trkpt>
      <trkpt lat="45.86049" lon="4.77923">
        <ele>385.2</ele>
        <time>2015-03-07T14:58:27Z</time>
      </trkpt>
      <trkpt lat="45.86058" lon="4.77917">
        <ele>383.2</ele>
        <time>2015-03-07T14:58:29Z</time>
      </trkpt>
      <trkpt lat="45.86066" lon="4.77907">
        <ele>381.2</ele>
        <time>2015-03-07T14:58:31Z</time>
      </trkpt>
      <trkpt lat="45.86074" lon="4.779">
        <ele>379.2</ele>
        <time>2015-03-07T14:58:33Z</time>
      </trkpt>
      <trkpt lat="45.86083" lon="4.77891">
        <ele>377.2</ele>
        <time>2015-03-07T14:58:36Z</time>
      </trkpt>
      <trkpt lat="45.86092" lon="4.77884">
        <ele>375.2</ele>
        <time>2015-03-07T14:58:40Z</time>
      </trkpt>
      <trkpt lat="45.861" lon="4.77876">
        <ele>373.2</ele>
        <time>2015-03-07T14:58:43Z</time>
      </trkpt>
      <trkpt lat="45.86105" lon="4.77863">
        <ele>371.2</ele>
        <time>2015-03-07T14:58:45Z</time>
      </trkpt>
      <trkpt lat="45.86111" lon="4.7785">
        <ele>369.2</ele>
        <time>2015-03-07T14:58:49Z</time>
      </trkpt>
      <trkpt lat="45.86117" lon="4.77841">
        <ele>367.2</ele>
        <time>2015-03-07T14:58:52Z</time>
      </trkpt>
      <trkpt lat="45.86123" lon="4.77833">
        <ele>363.5</ele>
        <time>2015-03-07T14:58:54Z</time>
      </trkpt>
      <trkpt lat="45.86131" lon="4.77824">
        <ele>359.7</ele>
        <time>2015-03-07T14:58:56Z</time>
      </trkpt>
      <trkpt lat="45.86141" lon="4.77817">
        <ele>360.1</ele>
        <time>2015-03-07T14:58:59Z</time>
      </trkpt>
      <trkpt lat="45.8615" lon="4.77806">
        <ele>360.5</ele>
        <time>2015-03-07T14:59:01Z</time>
      </trkpt>
      <trkpt lat="45.86157" lon="4.77796">
        <ele>360.8</ele>
        <time>2015-03-07T14:59:04Z</time>
      </trkpt>
      <trkpt lat="45.86171" lon="4.77793">
        <ele>361.4</ele>
        <time>2015-03-07T14:59:07Z</time>
      </trkpt>
      <trkpt lat="45.86181" lon="4.77794">
        <ele>361.9</ele>
        <time>2015-03-07T14:59:10Z</time>
      </trkpt>
      <trkpt lat="45.8619" lon="4.77799">
        <ele>362.1</ele>
        <time>2015-03-07T14:59:13Z</time>
      </trkpt>
      <trkpt lat="45.86199" lon="4.77806">
        <ele>362.3</ele>
        <time>2015-03-07T14:59:17Z</time>
      </trkpt>
      <trkpt lat="45.86208" lon="4.77809">
        <ele>362.5</ele>
        <time>2015-03-07T14:59:21Z</time>
      </trkpt>
      <trkpt lat="45.86219" lon="4.77809">
        <ele>362.6</ele>
        <time>2015-03-07T14:59:24Z</time>
      </trkpt>
      <trkpt lat="45.86228" lon="4.77814">
        <ele>364.5</ele>
        <time>2015-03-07T14:59:26Z</time>
      </trkpt>
      <trkpt lat="45.86238" lon="4.77819">
        <ele>366.5</ele>
        <time>2015-03-07T14:59:29Z</time>
      </trkpt>
      <trkpt lat="45.86249" lon="4.77822">
        <ele>365.5</ele>
        <time>2015-03-07T14:59:33Z</time>
      </trkpt>
      <trkpt lat="45.86262" lon="4.77826">
        <ele>364.6</ele>
        <time>2015-03-07T14:59:36Z</time>
      </trkpt>
      <trkpt lat="45.86273" lon="4.77831">
        <ele>363.7</ele>
        <time>2015-03-07T14:59:38Z</time>
      </trkpt>
      <trkpt lat="45.8628" lon="4.77838">
        <ele>362.6</ele>
        <time>2015-03-07T14:59:40Z</time>
      </trkpt>
      <trkpt lat="45.8629" lon="4.77839">
        <ele>361.5</ele>
        <time>2015-03-07T14:59:42Z</time>
      </trkpt>
      <trkpt lat="45.86302" lon="4.77844">
        <ele>360.5</ele>
        <time>2015-03-07T14:59:46Z</time>
      </trkpt>
      <trkpt lat="45.86313" lon="4.77852">
        <ele>359.4</ele>
        <time>2015-03-07T14:59:49Z</time>
      </trkpt>
      <trkpt lat="45.86321" lon="4.77856">
        <ele>358.3</ele>
        <time>2015-03-07T14:59:51Z</time>
      </trkpt>
      <trkpt lat="45.86331" lon="4.77858">
        <ele>357.2</ele>
        <time>2015-03-07T14:59:54Z</time>
      </trkpt>
      <trkpt lat="45.8634" lon="4.7786">
        <ele>355.2</ele>
        <time>2015-03-07T14:59:58Z</time>
      </trkpt>
      <trkpt lat="45.8635" lon="4.77858">
        <ele>353.2</ele>
        <time>2015-03-07T15:00:01Z</time>
      </trkpt>
      <trkpt lat="45.86359" lon="4.77859">
        <ele>352.3</ele>
        <time>2015-03-07T15:00:04Z</time>
      </trkpt>
      <trkpt lat="45.86367" lon="4.7786">
        <ele>351.4</ele>
        <time>2015-03-07T15:00:06Z</time>
      </trkpt>
      <trkpt lat="45.86376" lon="4.77862">
        <ele>350.5</ele>
        <time>2015-03-07T15:00:08Z</time>
      </trkpt>
      <trkpt lat="45.86385" lon="4.77858">
        <ele>349.5</ele>
        <time>2015-03-07T15:00:13Z</time>
      </trkpt>
      <trkpt lat="45.86393" lon="4.77852">
        <ele>348.6</ele>
        <time>2015-03-07T15:00:16Z</time>
      </trkpt>
      <trkpt lat="45.86403" lon="4.77846">
        <ele>347.7</ele>
        <time>2015-03-07T15:00:18Z</time>
      </trkpt>
      <trkpt lat="45.86414" lon="4.77843">
        <ele>346.8</ele>
        <time>2015-03-07T15:00:21Z</time>
      </trkpt>
      <trkpt lat="45.86422" lon="4.77841">
        <ele>345.7</ele>
        <time>2015-03-07T15:00:24Z</time>
      </trkpt>
      <trkpt lat="45.8643" lon="4.77838">
        <ele>344.6</ele>
        <time>2015-03-07T15:00:26Z</time>
      </trkpt>
      <trkpt lat="45.86438" lon="4.77835">
        <ele>344.5</ele>
        <time>2015-03-07T15:00:29Z</time>
      </trkpt>
      <trkpt lat="45.86449" lon="4.77832">
        <ele>344.3</ele>
        <time>2015-03-07T15:00:31Z</time>
      </trkpt>
      <trkpt lat="45.86459" lon="4.77829">
        <ele>344.1</ele>
        <time>2015-03-07T15:00:36Z</time>
      </trkpt>
      <trkpt lat="45.86469" lon="4.77827">
        <ele>343.9</ele>
        <time>2015-03-07T15:00:39Z</time>
      </trkpt>
      <trkpt lat="45.86478" lon="4.7783">
        <ele>343.7</ele>
        <time>2015-03-07T15:00:42Z</time>
      </trkpt>
      <trkpt lat="45.86486" lon="4.77829">
        <ele>343.5</ele>
        <time>2015-03-07T15:00:44Z</time>
      </trkpt>
      <trkpt lat="45.86496" lon="4.77825">
        <ele>343.4</ele>
        <time>2015-03-07T15:00:47Z</time>
      </trkpt>
      <trkpt lat="45.86505" lon="4.77821">
        <ele>343.4</ele>
        <time>2015-03-07T15:00:51Z</time>
      </trkpt>
      <trkpt lat="45.86515" lon="4.77818">
        <ele>343.4</ele>
        <time>2015-03-07T15:00:55Z</time>
      </trkpt>
      <trkpt lat="45.86524" lon="4.77816">
        <ele>343.5</ele>
        <time>2015-03-07T15:00:57Z</time>
      </trkpt>
      <trkpt lat="45.86535" lon="4.77812">
        <ele>343.7</ele>
        <time>2015-03-07T15:00:59Z</time>
      </trkpt>
      <trkpt lat="45.86543" lon="4.77809">
        <ele>341.6</ele>
        <time>2015-03-07T15:01:02Z</time>
      </trkpt>
      <trkpt lat="45.86552" lon="4.77805">
        <ele>339.5</ele>
        <time>2015-03-07T15:01:05Z</time>
      </trkpt>
      <trkpt lat="45.86562" lon="4.77803">
        <ele>337.5</ele>
        <time>2015-03-07T15:01:08Z</time>
      </trkpt>
      <trkpt lat="45.86571" lon="4.77803">
        <ele>335.4</ele>
        <time>2015-03-07T15:01:10Z</time>
      </trkpt>
      <trkpt lat="45.86581" lon="4.77797">
        <ele>333.1</ele>
        <time>2015-03-07T15:01:13Z</time>
      </trkpt>
      <trkpt lat="45.86591" lon="4.77793">
        <ele>330.8</ele>
        <time>2015-03-07T15:01:17Z</time>
      </trkpt>
      <trkpt lat="45.866" lon="4.7779">
        <ele>328.5</ele>
        <time>2015-03-07T15:01:20Z</time>
      </trkpt>
      <trkpt lat="45.86612" lon="4.7779">
        <ele>326.1</ele>
        <time>2015-03-07T15:01:24Z</time>
      </trkpt>
      <trkpt lat="45.86624" lon="4.77791">
        <ele>323.6</ele>
        <time>2015-03-07T15:01:28Z</time>
      </trkpt>
      <trkpt lat="45.86632" lon="4.77792">
        <ele>321.2</ele>
        <time>2015-03-07T15:01:30Z</time>
      </trkpt>
      <trkpt lat="45.86642" lon="4.77793">
        <ele>318.7</ele>
        <time>2015-03-07T15:01:33Z</time>
      </trkpt>
      <trkpt lat="45.86652" lon="4.77794">
        <ele>320.6</ele>
        <time>2015-03-07T15:01:35Z</time>
      </trkpt>
      <trkpt lat="45.8666" lon="4.77795">
        <ele>320.9</ele>
        <time>2015-03-07T15:01:37Z</time>
      </trkpt>
      <trkpt lat="45.8667" lon="4.77794">
        <ele>321.2</ele>
        <time>2015-03-07T15:01:41Z</time>
      </trkpt>
      <trkpt lat="45.86681" lon="4.77792">
        <ele>321.5</ele>
        <time>2015-03-07T15:01:44Z</time>
      </trkpt>
      <trkpt lat="45.86692" lon="4.77792">
        <ele>321.9</ele>
        <time>2015-03-07T15:01:47Z</time>
      </trkpt>
      <trkpt lat="45.86706" lon="4.77796">
        <ele>322.4</ele>
        <time>2015-03-07T15:01:50Z</time>
      </trkpt>
      <trkpt lat="45.86717" lon="4.778">
        <ele>322.8</ele>
        <time>2015-03-07T15:01:52Z</time>
      </trkpt>
      <trkpt lat="45.86725" lon="4.77804">
        <ele>323.3</ele>
        <time>2015-03-07T15:01:55Z</time>
      </trkpt>
      <trkpt lat="45.86733" lon="4.77813">
        <ele>323.7</ele>
        <time>2015-03-07T15:01:58Z</time>
      </trkpt>
      <trkpt lat="45.86739" lon="4.77825">
        <ele>324.2</ele>
        <time>2015-03-07T15:02:01Z</time>
      </trkpt>
      <trkpt lat="45.86746" lon="4.77832">
        <ele>324.6</ele>
        <time>2015-03-07T15:02:03Z</time>
      </trkpt>
      <trkpt lat="45.86754" lon="4.77837">
        <ele>321.8</ele>
        <time>2015-03-07T15:02:05Z</time>
      </trkpt>
      <trkpt lat="45.86765" lon="4.7784">
        <ele>320.6</ele>
        <time>2015-03-07T15:02:10Z</time>
      </trkpt>
      <trkpt lat="45.86774" lon="4.7784">
        <ele>319.5</ele>
        <time>2015-03-07T15:02:12Z</time>
      </trkpt>
      <trkpt lat="45.86783" lon="4.77837">
        <ele>318.3</ele>
        <time>2015-03-07T15:02:15Z</time>
      </trkpt>
      <trkpt lat="45.86791" lon="4.77834">
        <ele>317.1</ele>
        <time>2015-03-07T15:02:17Z</time>
      </trkpt>
      <trkpt lat="45.868" lon="4.77833">
        <ele>315.9</ele>
        <time>2015-03-07T15:02:20Z</time>
      </trkpt>
      <trkpt lat="45.86809" lon="4.77834">
        <ele>314.7</ele>
        <time>2015-03-07T15:02:23Z</time>
      </trkpt>
      <trkpt lat="45.86817" lon="4.77835">
        <ele>313.6</ele>
        <time>2015-03-07T15:02:26Z</time>
      </trkpt>
      <trkpt lat="45.86829" lon="4.77841">
        <ele>312.5</ele>
        <time>2015-03-07T15:02:29Z</time>
      </trkpt>
      <trkpt lat="45.86834" lon="4.77851">
        <ele>311.5</ele>
        <time>2015-03-07T15:02:31Z</time>
      </trkpt>
      <trkpt lat="45.86837" lon="4.77863">
        <ele>310.4</ele>
        <time>2015-03-07T15:02:35Z</time>
      </trkpt>
      <trkpt lat="45.8684" lon="4.77875">
        <ele>309.4</ele>
        <time>2015-03-07T15:02:38Z</time>
      </trkpt>
      <trkpt lat="45.86847" lon="4.77882">
        <ele>308.1</ele>
        <time>2015-03-07T15:02:41Z</time>
      </trkpt>
      <trkpt lat="45.86857" lon="4.77886">
        <ele>306.8</ele>
        <time>2015-03-07T15:02:44Z</time>
      </trkpt>
      <trkpt lat="45.86868" lon="4.77891">
        <ele>305.5</ele>
        <time>2015-03-07T15:02:47Z</time>
      </trkpt>
      <trkpt lat="45.86877" lon="4.7789">
        <ele>304.3</ele>
        <time>2015-03-07T15:02:49Z</time>
      </trkpt>
      <trkpt lat="45.86887" lon="4.77882">
        <ele>303</ele>
        <time>2015-03-07T15:02:51Z</time>
      </trkpt>
      <trkpt lat="45.86893" lon="4.7787">
        <ele>301.7</ele>
        <time>2015-03-07T15:02:53Z</time>
      </trkpt>
      <trkpt lat="45.86898" lon="4.77857">
        <ele>300.4</ele>
        <time>2015-03-07T15:02:55Z</time>
      </trkpt>
      <trkpt lat="45.86903" lon="4.77847">
        <ele>299</ele>
        <time>2015-03-07T15:02:58Z</time>
      </trkpt>
      <trkpt lat="45.86911" lon="4.77832">
        <ele>297.6</ele>
        <time>2015-03-07T15:03:02Z</time>
      </trkpt>
      <trkpt lat="45.86918" lon="4.77821">
        <ele>295.5</ele>
        <time>2015-03-07T15:03:04Z</time>
      </trkpt>
      <trkpt lat="45.86928" lon="4.77815">
        <ele>294.5</ele>
        <time>2015-03-07T15:03:08Z</time>
      </trkpt>
      <trkpt lat="45.86938" lon="4.77812">
        <ele>293.8</ele>
        <time>2015-03-07T15:03:10Z</time>
      </trkpt>
      <trkpt lat="45.86949" lon="4.77812">
        <ele>292.6</ele>
        <time>2015-03-07T15:03:13Z</time>
      </trkpt>
      <trkpt lat="45.86961" lon="4.77811">
        <ele>291.5</ele>
        <time>2015-03-07T15:03:15Z</time>
      </trkpt>
      <trkpt lat="45.86969" lon="4.77807">
        <ele>290.3</ele>
        <time>2015-03-07T15:03:17Z</time>
      </trkpt>
      <trkpt lat="45.8698" lon="4.778">
        <ele>289.1</ele>
        <time>2015-03-07T15:03:19Z</time>
      </trkpt>
      <trkpt lat="45.86988" lon="4.77796">
        <ele>287.9</ele>
        <time>2015-03-07T15:03:21Z</time>
      </trkpt>
      <trkpt lat="45.86997" lon="4.77787">
        <ele>286.7</ele>
        <time>2015-03-07T15:03:23Z</time>
      </trkpt>
      <trkpt lat="45.87005" lon="4.77774">
        <ele>284.8</ele>
        <time>2015-03-07T15:03:26Z</time>
      </trkpt>
      <trkpt lat="45.87013" lon="4.7776">
        <ele>282.9</ele>
        <time>2015-03-07T15:03:28Z</time>
      </trkpt>
      <trkpt lat="45.87021" lon="4.77748">
        <ele>281.7</ele>
        <time>2015-03-07T15:03:31Z</time>
      </trkpt>
      <trkpt lat="45.87029" lon="4.77739">
        <ele>280.5</ele>
        <time>2015-03-07T15:03:34Z</time>
      </trkpt>
      <trkpt lat="45.87037" lon="4.77732">
        <ele>279.4</ele>
        <time>2015-03-07T15:03:37Z</time>
      </trkpt>
      <trkpt lat="45.87048" lon="4.77733">
        <ele>278.6</ele>
        <time>2015-03-07T15:03:41Z</time>
      </trkpt>
      <trkpt lat="45.87056" lon="4.77742">
        <ele>277.9</ele>
        <time>2015-03-07T15:03:44Z</time>
      </trkpt>
      <trkpt lat="45.87064" lon="4.7775">
        <ele>277</ele>
        <time>2015-03-07T15:03:47Z</time>
      </trkpt>
      <trkpt lat="45.87072" lon="4.7776">
        <ele>276.1</ele>
        <time>2015-03-07T15:03:51Z</time>
      </trkpt>
      <trkpt lat="45.87094" lon="4.77779">
        <ele>275.2</ele>
        <time>2015-03-07T15:03:58Z</time>
      </trkpt>
      <trkpt lat="45.87107" lon="4.77778">
        <ele>274.3</ele>
        <time>2015-03-07T15:04:01Z</time>
      </trkpt>
      <trkpt lat="45.87119" lon="4.77776">
        <ele>274.1</ele>
        <time>2015-03-07T15:04:05Z</time>
      </trkpt>
      <trkpt lat="45.8713" lon="4.77774">
        <ele>273.2</ele>
        <time>2015-03-07T15:04:07Z</time>
      </trkpt>
      <trkpt lat="45.87138" lon="4.77767">
        <ele>272.3</ele>
        <time>2015-03-07T15:04:10Z</time>
      </trkpt>
      <trkpt lat="45.87146" lon="4.77751">
        <ele>271.4</ele>
        <time>2015-03-07T15:04:13Z</time>
      </trkpt>
      <trkpt lat="45.87154" lon="4.77734">
        <ele>270.5</ele>
        <time>2015-03-07T15:04:15Z</time>
      </trkpt>
      <trkpt lat="45.87162" lon="4.77714">
        <ele>269.5</ele>
        <time>2015-03-07T15:04:18Z</time>
      </trkpt>
      <trkpt lat="45.87166" lon="4.777">
        <ele>268.6</ele>
        <time>2015-03-07T15:04:20Z</time>
      </trkpt>
      <trkpt lat="45.87169" lon="4.77684">
        <ele>267.4</ele>
        <time>2015-03-07T15:04:22Z</time>
      </trkpt>
      <trkpt lat="45.87171" lon="4.77671">
        <ele>266.1</ele>
        <time>2015-03-07T15:04:24Z</time>
      </trkpt>
      <trkpt lat="45.87175" lon="4.77658">
        <ele>264.8</ele>
        <time>2015-03-07T15:04:27Z</time>
      </trkpt>
      <trkpt lat="45.87182" lon="4.77646">
        <ele>263.3</ele>
        <time>2015-03-07T15:04:31Z</time>
      </trkpt>
      <trkpt lat="45.87188" lon="4.77636">
        <ele>261.7</ele>
        <time>2015-03-07T15:04:33Z</time>
      </trkpt>
      <trkpt lat="45.87195" lon="4.77625">
        <ele>260.9</ele>
        <time>2015-03-07T15:04:35Z</time>
      </trkpt>
      <trkpt lat="45.87202" lon="4.77615">
        <ele>260.1</ele>
        <time>2015-03-07T15:04:37Z</time>
      </trkpt>
      <trkpt lat="45.87209" lon="4.77609">
        <ele>259.3</ele>
        <time>2015-03-07T15:04:39Z</time>
      </trkpt>
      <trkpt lat="45.87217" lon="4.77603">
        <ele>258.5</ele>
        <time>2015-03-07T15:04:41Z</time>
      </trkpt>
      <trkpt lat="45.87228" lon="4.77596">
        <ele>257.6</ele>
        <time>2015-03-07T15:04:45Z</time>
      </trkpt>
      <trkpt lat="45.87236" lon="4.77591">
        <ele>256.8</ele>
        <time>2015-03-07T15:04:47Z</time>
      </trkpt>
      <trkpt lat="45.87244" lon="4.77587">
        <ele>256.5</ele>
        <time>2015-03-07T15:04:49Z</time>
      </trkpt>
      <trkpt lat="45.87254" lon="4.77579">
        <ele>255.1</ele>
        <time>2015-03-07T15:04:52Z</time>
      </trkpt>
      <trkpt lat="45.87263" lon="4.77573">
        <ele>253.6</ele>
        <time>2015-03-07T15:04:54Z</time>
      </trkpt>
      <trkpt lat="45.87274" lon="4.77566">
        <ele>252.5</ele>
        <time>2015-03-07T15:04:58Z</time>
      </trkpt>
      <trkpt lat="45.87282" lon="4.77559">
        <ele>251.3</ele>
        <time>2015-03-07T15:05:00Z</time>
      </trkpt>
      <trkpt lat="45.87288" lon="4.77551">
        <ele>250.1</ele>
        <time>2015-03-07T15:05:02Z</time>
      </trkpt>
      <trkpt lat="45.87294" lon="4.77542">
        <ele>248.9</ele>
        <time>2015-03-07T15:05:04Z</time>
      </trkpt>
      <trkpt lat="45.87299" lon="4.77531">
        <ele>247.7</ele>
        <time>2015-03-07T15:05:06Z</time>
      </trkpt>
      <trkpt lat="45.87305" lon="4.7752">
        <ele>246.5</ele>
        <time>2015-03-07T15:05:08Z</time>
      </trkpt>
      <trkpt lat="45.87311" lon="4.7751">
        <ele>245.4</ele>
        <time>2015-03-07T15:05:11Z</time>
      </trkpt>
      <trkpt lat="45.87317" lon="4.77499">
        <ele>244.2</ele>
        <time>2015-03-07T15:05:13Z</time>
      </trkpt>
      <trkpt lat="45.8733" lon="4.77498">
        <ele>243</ele>
        <time>2015-03-07T15:05:15Z</time>
      </trkpt>
      <trkpt lat="45.87339" lon="4.77497">
        <ele>242.6</ele>
        <time>2015-03-07T15:05:18Z</time>
      </trkpt>
      <trkpt lat="45.87348" lon="4.77494">
        <ele>242.3</ele>
        <time>2015-03-07T15:05:21Z</time>
      </trkpt>
      <trkpt lat="45.87358" lon="4.77491">
        <ele>241.9</ele>
        <time>2015-03-07T15:05:25Z</time>
      </trkpt>
      <trkpt lat="45.87367" lon="4.77485">
        <ele>241.5</ele>
        <time>2015-03-07T15:05:28Z</time>
      </trkpt>
      <trkpt lat="45.87375" lon="4.77479">
        <ele>241.2</ele>
        <time>2015-03-07T15:05:30Z</time>
      </trkpt>
      <trkpt lat="45.87383" lon="4.77474">
        <ele>240.8</ele>
        <time>2015-03-07T15:05:32Z</time>
      </trkpt>
      <trkpt lat="45.87394" lon="4.77471">
        <ele>240.5</ele>
        <time>2015-03-07T15:05:36Z</time>
      </trkpt>
      <trkpt lat="45.87405" lon="4.77469">
        <ele>240.1</ele>
        <time>2015-03-07T15:05:39Z</time>
      </trkpt>
      <trkpt lat="45.87413" lon="4.77463">
        <ele>239.7</ele>
        <time>2015-03-07T15:05:42Z</time>
      </trkpt>
      <trkpt lat="45.87416" lon="4.77447">
        <ele>239.3</ele>
        <time>2015-03-07T15:05:45Z</time>
      </trkpt>
      <trkpt lat="45.87417" lon="4.77433">
        <ele>238.8</ele>
        <time>2015-03-07T15:05:49Z</time>
      </trkpt>
      <trkpt lat="45.87416" lon="4.77419">
        <ele>238.7</ele>
        <time>2015-03-07T15:05:52Z</time>
      </trkpt>
      <trkpt lat="45.87417" lon="4.77404">
        <ele>238.6</ele>
        <time>2015-03-07T15:05:55Z</time>
      </trkpt>
      <trkpt lat="45.87418" lon="4.77391">
        <ele>238.5</ele>
        <time>2015-03-07T15:05:57Z</time>
      </trkpt>
      <trkpt lat="45.8742" lon="4.77377">
        <ele>238.5</ele>
        <time>2015-03-07T15:06:00Z</time>
      </trkpt>
      <trkpt lat="45.87418" lon="4.77362">
        <ele>238.2</ele>
        <time>2015-03-07T15:06:04Z</time>
      </trkpt>
      <trkpt lat="45.87418" lon="4.77347">
        <ele>237.9</ele>
        <time>2015-03-07T15:06:07Z</time>
      </trkpt>
      <trkpt lat="45.87415" lon="4.77333">
        <ele>237.6</ele>
        <time>2015-03-07T15:06:10Z</time>
      </trkpt>
      <trkpt lat="45.87412" lon="4.7732">
        <ele>237.4</ele>
        <time>2015-03-07T15:06:13Z</time>
      </trkpt>
      <trkpt lat="45.87409" lon="4.77306">
        <ele>237.1</ele>
        <time>2015-03-07T15:06:17Z</time>
      </trkpt>
      <trkpt lat="45.87403" lon="4.77294">
        <ele>236.9</ele>
        <time>2015-03-07T15:06:20Z</time>
      </trkpt>
      <trkpt lat="45.874" lon="4.77283">
        <ele>236.8</ele>
        <time>2015-03-07T15:06:23Z</time>
      </trkpt>
      <trkpt lat="45.87396" lon="4.77269">
        <ele>236.7</ele>
        <time>2015-03-07T15:06:26Z</time>
      </trkpt>
      <trkpt lat="45.87395" lon="4.77254">
        <ele>236.6</ele>
        <time>2015-03-07T15:06:30Z</time>
      </trkpt>
      <trkpt lat="45.87393" lon="4.77238">
        <ele>236.5</ele>
        <time>2015-03-07T15:06:33Z</time>
      </trkpt>
      <trkpt lat="45.87391" lon="4.77224">
        <ele>236.5</ele>
        <time>2015-03-07T15:06:36Z</time>
      </trkpt>
      <trkpt lat="45.87391" lon="4.77211">
        <ele>236.5</ele>
        <time>2015-03-07T15:06:39Z</time>
      </trkpt>
      <trkpt lat="45.87393" lon="4.77194">
        <ele>236.2</ele>
        <time>2015-03-07T15:06:43Z</time>
      </trkpt>
      <trkpt lat="45.87392" lon="4.77182">
        <ele>235.8</ele>
        <time>2015-03-07T15:06:45Z</time>
      </trkpt>
      <trkpt lat="45.87392" lon="4.7717">
        <ele>235.5</ele>
        <time>2015-03-07T15:06:48Z</time>
      </trkpt>
      <trkpt lat="45.87393" lon="4.77158">
        <ele>235.1</ele>
        <time>2015-03-07T15:06:51Z</time>
      </trkpt>
      <trkpt lat="45.87393" lon="4.77144">
        <ele>234.7</ele>
        <time>2015-03-07T15:06:55Z</time>
      </trkpt>
      <trkpt lat="45.87391" lon="4.77131">
        <ele>234.3</ele>
        <time>2015-03-07T15:06:58Z</time>
      </trkpt>
      <trkpt lat="45.8739" lon="4.77117">
        <ele>233.8</ele>
        <time>2015-03-07T15:07:01Z</time>
      </trkpt>
      <trkpt lat="45.87388" lon="4.77104">
        <ele>233.4</ele>
        <time>2015-03-07T15:07:04Z</time>
      </trkpt>
      <trkpt lat="45.87388" lon="4.77084">
        <ele>233.1</ele>
        <time>2015-03-07T15:07:08Z</time>
      </trkpt>
      <trkpt lat="45.87391" lon="4.77071">
        <ele>232.8</ele>
        <time>2015-03-07T15:07:11Z</time>
      </trkpt>
      <trkpt lat="45.87398" lon="4.77062">
        <ele>232.5</ele>
        <time>2015-03-07T15:07:14Z</time>
      </trkpt>
      <trkpt lat="45.87408" lon="4.77051">
        <ele>232.7</ele>
        <time>2015-03-07T15:07:17Z</time>
      </trkpt>
      <trkpt lat="45.87417" lon="4.77044">
        <ele>232.7</ele>
        <time>2015-03-07T15:07:19Z</time>
      </trkpt>
      <trkpt lat="45.87427" lon="4.77041">
        <ele>232.9</ele>
        <time>2015-03-07T15:07:23Z</time>
      </trkpt>
      <trkpt lat="45.87439" lon="4.77039">
        <ele>233</ele>
        <time>2015-03-07T15:07:26Z</time>
      </trkpt>
      <trkpt lat="45.8745" lon="4.77036">
        <ele>233.1</ele>
        <time>2015-03-07T15:07:29Z</time>
      </trkpt>
      <trkpt lat="45.8746" lon="4.77034">
        <ele>233.2</ele>
        <time>2015-03-07T15:07:32Z</time>
      </trkpt>
      <trkpt lat="45.87464" lon="4.77021">
        <ele>233.4</ele>
        <time>2015-03-07T15:07:36Z</time>
      </trkpt>
    </trkseg>
  </trk>
</gpx>